Cruise inventory

Planet (67-81) 10/78

Cruise plan

Cruise Info. 
Ship name (ship code)Planet (67-81) (06P2)
Cruise identifier10/78
Cruise period1978-08-15 — 1978-09-14
StatusCompleted
Chief scientistGerold Siedler (Institute of Marine Sciences, Kiel)
Ocean/sea areas 
GeneralNorth Sea
North East Atlantic Ocean (limit 40W)
Measurements 
Physical oceanography 
BathythermographQuantity: number of profiles = 65
CTD stationsQuantity: number of stations = 128
Current metersQuantity: 7
Meteorology 
Routine standard measurementsQuantity: 39
Data held at BODC 
Series/Profiles 
1128  CTD/STD cast
Vertical spatial coordinates
Salinity of the water column
Temperature of the water column
Vertical spatial coordinates
Salinity of the water column
Temperature of the water column

BODC idDate/TimeLocationDoc.
1741771978-09-05 15:50 58° 56' 23" N  12° 30' 29" W  View metadata report for BODC series reference number 174177
1741891978-09-05 20:00 58° 56' 23" N  12° 32' 29" W  View metadata report for BODC series reference number 174189
1741901978-09-05 20:20 58° 56' 23" N  12° 32' 29" W  View metadata report for BODC series reference number 174190
1742081978-09-05 20:40 58° 56' 11" N  12° 32' 17" W  View metadata report for BODC series reference number 174208
1742211978-09-05 21:00 58° 56' 11" N  12° 32' 17" W  View metadata report for BODC series reference number 174221
1742331978-09-05 21:20 58° 56' 6" N  12° 31' 35" W  View metadata report for BODC series reference number 174233
1742451978-09-05 21:40 58° 56' 11" N  12° 31' 5" W  View metadata report for BODC series reference number 174245
1742571978-09-05 22:00 58° 56' 11" N  12° 31' 5" W  View metadata report for BODC series reference number 174257
1742691978-09-05 22:20 58° 56' 6" N  12° 30' 0" W  View metadata report for BODC series reference number 174269
1742701978-09-05 22:40 58° 56' 6" N  12° 30' 0" W  View metadata report for BODC series reference number 174270
1742821978-09-05 23:00 58° 56' 6" N  12° 30' 0" W  View metadata report for BODC series reference number 174282
1742941978-09-05 23:40 58° 56' 6" N  12° 30' 0" W  View metadata report for BODC series reference number 174294
1743011978-09-06 00:00 58° 56' 6" N  12° 29' 53" W  View metadata report for BODC series reference number 174301
1743131978-09-06 00:20 58° 56' 29" N  12° 33' 53" W  View metadata report for BODC series reference number 174313
1752001978-09-08 06:30 59° 3' 59" N  12° 30' 29" W  View metadata report for BODC series reference number 175200
1752121978-09-08 07:00 59° 3' 41" N  12° 30' 35" W  View metadata report for BODC series reference number 175212
1752241978-09-08 07:30 59° 3' 23" N  12° 30' 35" W  View metadata report for BODC series reference number 175224
1752361978-09-08 08:00 59° 3' 41" N  12° 30' 54" W  View metadata report for BODC series reference number 175236
1752481978-09-08 08:30 59° 3' 29" N  12° 30' 54" W  View metadata report for BODC series reference number 175248
1752611978-09-08 09:00 59° 3' 41" N  12° 30' 54" W  View metadata report for BODC series reference number 175261
1752731978-09-08 10:00 59° 3' 23" N  12° 30' 59" W  View metadata report for BODC series reference number 175273
1752851978-09-08 10:30 59° 3' 41" N  12° 30' 47" W  View metadata report for BODC series reference number 175285
1753041978-09-08 11:00 59° 3' 41" N  12° 30' 47" W  View metadata report for BODC series reference number 175304
1753161978-09-08 12:00 59° 4' 12" N  12° 29' 35" W  View metadata report for BODC series reference number 175316
1753281978-09-08 12:30 59° 4' 12" N  12° 29' 35" W  View metadata report for BODC series reference number 175328
1753411978-09-08 13:00 59° 4' 12" N  12° 29' 35" W  View metadata report for BODC series reference number 175341
1753531978-09-08 13:30 59° 4' 12" N  12° 29' 35" W  View metadata report for BODC series reference number 175353
1753651978-09-08 14:00 59° 4' 12" N  12° 29' 35" W  View metadata report for BODC series reference number 175365
1753771978-09-08 15:00 59° 4' 12" N  12° 29' 35" W  View metadata report for BODC series reference number 175377
1753891978-09-08 15:30 59° 4' 12" N  12° 29' 35" W  View metadata report for BODC series reference number 175389
1751201978-09-08 03:00 59° 4' 59" N  12° 30' 47" W  View metadata report for BODC series reference number 175120
1751321978-09-08 03:30 59° 4' 59" N  12° 30' 47" W  View metadata report for BODC series reference number 175132
1751441978-09-08 04:00 59° 4' 59" N  12° 30' 47" W  View metadata report for BODC series reference number 175144
1751561978-09-08 04:30 59° 4' 41" N  12° 31' 30" W  View metadata report for BODC series reference number 175156
1751681978-09-08 05:00 59° 4' 41" N  12° 31' 17" W  View metadata report for BODC series reference number 175168
1751811978-09-08 05:30 59° 4' 12" N  12° 30' 47" W  View metadata report for BODC series reference number 175181
1751931978-09-08 06:00 59° 3' 59" N  12° 30' 29" W  View metadata report for BODC series reference number 175193
1690581978-08-31 01:20 58° 53' 42" N  12° 13' 59" W  View metadata report for BODC series reference number 169058
1690711978-08-31 01:25 58° 53' 42" N  12° 13' 59" W  View metadata report for BODC series reference number 169071
1690831978-08-31 01:30 58° 53' 42" N  12° 13' 59" W  View metadata report for BODC series reference number 169083
1690951978-08-31 01:35 58° 53' 42" N  12° 13' 59" W  View metadata report for BODC series reference number 169095
1691021978-08-31 01:40 58° 53' 42" N  12° 13' 59" W  View metadata report for BODC series reference number 169102
1691141978-08-31 01:45 58° 53' 42" N  12° 13' 59" W  View metadata report for BODC series reference number 169114
1691261978-08-31 01:50 58° 53' 42" N  12° 13' 59" W  View metadata report for BODC series reference number 169126
1691381978-08-31 01:55 58° 53' 42" N  12° 13' 59" W  View metadata report for BODC series reference number 169138
1749151978-09-07 16:30 59° 4' 5" N  12° 30' 29" W  View metadata report for BODC series reference number 174915
1749271978-09-07 17:00 59° 4' 5" N  12° 30' 29" W  View metadata report for BODC series reference number 174927
1749391978-09-07 17:30 59° 4' 5" N  12° 30' 29" W  View metadata report for BODC series reference number 174939
1749401978-09-07 18:00 59° 3' 59" N  12° 31' 41" W  View metadata report for BODC series reference number 174940
1749521978-09-07 19:30 59° 3' 36" N  12° 32' 53" W  View metadata report for BODC series reference number 174952
1749641978-09-07 20:01 59° 3' 5" N  12° 33' 11" W  View metadata report for BODC series reference number 174964
1749761978-09-07 20:30 59° 3' 5" N  12° 33' 11" W  View metadata report for BODC series reference number 174976
1749881978-09-07 21:00 59° 3' 5" N  12° 33' 11" W  View metadata report for BODC series reference number 174988
1750031978-09-07 21:30 59° 3' 5" N  12° 33' 11" W  View metadata report for BODC series reference number 175003
1750151978-09-07 22:00 59° 5' 6" N  12° 30' 29" W  View metadata report for BODC series reference number 175015
1750271978-09-07 22:30 59° 5' 6" N  12° 30' 29" W  View metadata report for BODC series reference number 175027
1750391978-09-07 23:00 59° 5' 6" N  12° 30' 29" W  View metadata report for BODC series reference number 175039
1750401978-09-07 23:30 59° 5' 6" N  12° 30' 29" W  View metadata report for BODC series reference number 175040
1750521978-09-08 00:00 59° 5' 6" N  12° 30' 29" W  View metadata report for BODC series reference number 175052
1750641978-09-08 00:30 59° 5' 6" N  12° 30' 29" W  View metadata report for BODC series reference number 175064
1750761978-09-08 01:00 59° 5' 6" N  12° 30' 29" W  View metadata report for BODC series reference number 175076
1750881978-09-08 01:30 59° 5' 53" N  12° 29' 17" W  View metadata report for BODC series reference number 175088
1751071978-09-08 02:00 59° 5' 53" N  12° 29' 17" W  View metadata report for BODC series reference number 175107
1751191978-09-08 02:30 59° 4' 59" N  12° 30' 47" W  View metadata report for BODC series reference number 175119
1686691978-08-30 10:00 58° 54' 29" N  12° 23' 24" W  View metadata report for BODC series reference number 168669
1686701978-08-30 10:05 58° 54' 29" N  12° 23' 24" W  View metadata report for BODC series reference number 168670
1686821978-08-30 10:10 58° 54' 29" N  12° 23' 24" W  View metadata report for BODC series reference number 168682
1686941978-08-30 10:15 58° 54' 29" N  12° 23' 24" W  View metadata report for BODC series reference number 168694
1687011978-08-30 10:20 58° 54' 29" N  12° 23' 24" W  View metadata report for BODC series reference number 168701
1687131978-08-30 10:25 58° 54' 29" N  12° 23' 24" W  View metadata report for BODC series reference number 168713
1687251978-08-30 10:30 58° 54' 29" N  12° 23' 24" W  View metadata report for BODC series reference number 168725
1687371978-08-30 10:35 58° 54' 29" N  12° 23' 24" W  View metadata report for BODC series reference number 168737
1687491978-08-30 10:40 58° 54' 29" N  12° 23' 24" W  View metadata report for BODC series reference number 168749
1687501978-08-30 10:45 58° 54' 29" N  12° 23' 24" W  View metadata report for BODC series reference number 168750
1687621978-08-30 10:50 58° 54' 29" N  12° 23' 24" W  View metadata report for BODC series reference number 168762
1687741978-08-30 10:55 58° 54' 29" N  12° 23' 24" W  View metadata report for BODC series reference number 168774
1687861978-08-30 11:00 58° 54' 29" N  12° 23' 24" W  View metadata report for BODC series reference number 168786
1687981978-08-30 11:05 58° 54' 29" N  12° 23' 24" W  View metadata report for BODC series reference number 168798
1688051978-08-30 11:10 58° 54' 29" N  12° 23' 24" W  View metadata report for BODC series reference number 168805
1688171978-08-30 11:15 58° 54' 29" N  12° 23' 24" W  View metadata report for BODC series reference number 168817
1688291978-08-30 11:20 58° 54' 29" N  12° 23' 24" W  View metadata report for BODC series reference number 168829
1688301978-08-30 11:25 58° 54' 29" N  12° 23' 24" W  View metadata report for BODC series reference number 168830
1688421978-08-30 11:30 58° 54' 29" N  12° 23' 24" W  View metadata report for BODC series reference number 168842
1688541978-08-30 11:35 58° 54' 29" N  12° 23' 24" W  View metadata report for BODC series reference number 168854
1688661978-08-30 11:40 58° 54' 29" N  12° 23' 24" W  View metadata report for BODC series reference number 168866
1688781978-08-30 11:45 58° 54' 29" N  12° 23' 24" W  View metadata report for BODC series reference number 168878
1688911978-08-30 11:50 58° 54' 29" N  12° 23' 24" W  View metadata report for BODC series reference number 168891
1689091978-08-30 11:55 58° 54' 29" N  12° 23' 24" W  View metadata report for BODC series reference number 168909
1689101978-08-31 00:10 58° 53' 42" N  12° 13' 59" W  View metadata report for BODC series reference number 168910
1689221978-08-31 00:16 58° 53' 42" N  12° 13' 59" W  View metadata report for BODC series reference number 168922
1689341978-08-31 00:25 58° 53' 42" N  12° 13' 59" W  View metadata report for BODC series reference number 168934
1689461978-08-31 00:30 58° 53' 42" N  12° 13' 59" W  View metadata report for BODC series reference number 168946
1689581978-08-31 00:35 58° 53' 42" N  12° 13' 59" W  View metadata report for BODC series reference number 168958
1689711978-08-31 00:40 58° 53' 42" N  12° 13' 59" W  View metadata report for BODC series reference number 168971
1689831978-08-31 00:45 58° 53' 42" N  12° 13' 59" W  View metadata report for BODC series reference number 168983
1689951978-08-31 00:50 58° 53' 42" N  12° 13' 59" W  View metadata report for BODC series reference number 168995
1690091978-08-31 00:55 58° 53' 42" N  12° 13' 59" W  View metadata report for BODC series reference number 169009
1690101978-08-31 01:00 58° 53' 42" N  12° 13' 59" W  View metadata report for BODC series reference number 169010
1690221978-08-31 01:05 58° 53' 42" N  12° 13' 59" W  View metadata report for BODC series reference number 169022
1690341978-08-31 01:10 58° 53' 42" N  12° 13' 59" W  View metadata report for BODC series reference number 169034
1690461978-08-31 01:15 58° 53' 42" N  12° 13' 59" W  View metadata report for BODC series reference number 169046
1686571978-08-30 09:55 58° 54' 29" N  12° 23' 24" W  View metadata report for BODC series reference number 168657
1685531978-08-30 09:10 58° 54' 29" N  12° 23' 24" W  View metadata report for BODC series reference number 168553
1685651978-08-30 09:15 58° 54' 29" N  12° 23' 24" W  View metadata report for BODC series reference number 168565
1685771978-08-30 09:20 58° 54' 29" N  12° 23' 24" W  View metadata report for BODC series reference number 168577
1685891978-08-30 09:25 58° 54' 29" N  12° 23' 24" W  View metadata report for BODC series reference number 168589
1685901978-08-30 09:30 58° 54' 29" N  12° 23' 24" W  View metadata report for BODC series reference number 168590
1686081978-08-30 09:35 58° 54' 29" N  12° 23' 24" W  View metadata report for BODC series reference number 168608
1686211978-08-30 09:40 58° 54' 29" N  12° 23' 24" W  View metadata report for BODC series reference number 168621
1686331978-08-30 09:45 58° 54' 29" N  12° 23' 24" W  View metadata report for BODC series reference number 168633
1686451978-08-30 09:50 58° 54' 29" N  12° 23' 24" W  View metadata report for BODC series reference number 168645
1682521978-08-30 06:50 58° 54' 29" N  12° 24' 11" W  View metadata report for BODC series reference number 168252
1682641978-08-30 06:55 58° 54' 29" N  12° 24' 11" W  View metadata report for BODC series reference number 168264
1682761978-08-30 07:00 58° 54' 29" N  12° 24' 11" W  View metadata report for BODC series reference number 168276
1682881978-08-30 07:05 58° 54' 29" N  12° 24' 11" W  View metadata report for BODC series reference number 168288
1683071978-08-30 07:10 58° 54' 29" N  12° 24' 11" W  View metadata report for BODC series reference number 168307
1683191978-08-30 07:15 58° 54' 29" N  12° 24' 11" W  View metadata report for BODC series reference number 168319
1683201978-08-30 07:20 58° 54' 29" N  12° 24' 11" W  View metadata report for BODC series reference number 168320
1683321978-08-30 07:25 58° 54' 29" N  12° 24' 11" W  View metadata report for BODC series reference number 168332
1683441978-08-30 07:30 58° 54' 29" N  12° 24' 11" W  View metadata report for BODC series reference number 168344
1683561978-08-30 07:35 58° 54' 29" N  12° 24' 11" W  View metadata report for BODC series reference number 168356
1683681978-08-30 07:40 58° 54' 29" N  12° 24' 11" W  View metadata report for BODC series reference number 168368
1683811978-08-30 07:45 58° 54' 29" N  12° 24' 11" W  View metadata report for BODC series reference number 168381
1683931978-08-30 07:50 58° 54' 29" N  12° 24' 11" W  View metadata report for BODC series reference number 168393
1684001978-08-30 07:55 58° 54' 29" N  12° 24' 11" W  View metadata report for BODC series reference number 168400
1684121978-08-30 08:00 58° 54' 29" N  12° 24' 11" W  View metadata report for BODC series reference number 168412
1684241978-08-30 08:05 58° 54' 29" N  12° 24' 11" W  View metadata report for BODC series reference number 168424
1684361978-08-30 08:10 58° 54' 29" N  12° 24' 11" W  View metadata report for BODC series reference number 168436
1684481978-08-30 08:15 58° 54' 29" N  12° 24' 11" W  View metadata report for BODC series reference number 168448
1684611978-08-30 08:20 58° 54' 29" N  12° 24' 11" W  View metadata report for BODC series reference number 168461
1684731978-08-30 08:30 58° 54' 29" N  12° 23' 24" W  View metadata report for BODC series reference number 168473
1684851978-08-30 08:35 58° 54' 29" N  12° 23' 24" W  View metadata report for BODC series reference number 168485
1684971978-08-30 08:45 58° 54' 29" N  12° 23' 24" W  View metadata report for BODC series reference number 168497
1685041978-08-30 08:50 58° 54' 29" N  12° 23' 24" W  View metadata report for BODC series reference number 168504
1685161978-08-30 08:55 58° 54' 29" N  12° 23' 24" W  View metadata report for BODC series reference number 168516
1685281978-08-30 09:00 58° 54' 29" N  12° 23' 24" W  View metadata report for BODC series reference number 168528
1685411978-08-30 09:05 58° 54' 29" N  12° 23' 24" W  View metadata report for BODC series reference number 168541
1681471978-08-30 05:55 58° 54' 29" N  12° 24' 11" W  View metadata report for BODC series reference number 168147
1681591978-08-30 06:00 58° 54' 29" N  12° 24' 11" W  View metadata report for BODC series reference number 168159
1681601978-08-30 06:05 58° 54' 29" N  12° 24' 11" W  View metadata report for BODC series reference number 168160
1681721978-08-30 06:10 58° 54' 29" N  12° 24' 11" W  View metadata report for BODC series reference number 168172
1681841978-08-30 06:15 58° 54' 29" N  12° 24' 11" W  View metadata report for BODC series reference number 168184
1681961978-08-30 06:20 58° 54' 29" N  12° 24' 11" W  View metadata report for BODC series reference number 168196
1682031978-08-30 06:25 58° 54' 29" N  12° 24' 11" W  View metadata report for BODC series reference number 168203
1682151978-08-30 06:30 58° 54' 29" N  12° 24' 11" W  View metadata report for BODC series reference number 168215
1682271978-08-30 06:36 58° 54' 29" N  12° 24' 11" W  View metadata report for BODC series reference number 168227
1682391978-08-30 06:40 58° 54' 29" N  12° 24' 11" W  View metadata report for BODC series reference number 168239
1682401978-08-30 06:45 58° 54' 29" N  12° 24' 11" W  View metadata report for BODC series reference number 168240
1678631978-08-30 03:40 58° 54' 41" N  12° 24' 29" W  View metadata report for BODC series reference number 167863
1678751978-08-30 03:45 58° 54' 41" N  12° 24' 29" W  View metadata report for BODC series reference number 167875
1678871978-08-30 03:50 58° 54' 41" N  12° 24' 29" W  View metadata report for BODC series reference number 167887
1678991978-08-30 03:55 58° 54' 41" N  12° 24' 29" W  View metadata report for BODC series reference number 167899
1679061978-08-30 04:10 58° 54' 29" N  12° 24' 11" W  View metadata report for BODC series reference number 167906
1679181978-08-30 04:15 58° 54' 29" N  12° 24' 11" W  View metadata report for BODC series reference number 167918
1679311978-08-30 04:20 58° 54' 29" N  12° 24' 11" W  View metadata report for BODC series reference number 167931
1679431978-08-30 04:25 58° 54' 29" N  12° 24' 11" W  View metadata report for BODC series reference number 167943
1679551978-08-30 04:30 58° 54' 29" N  12° 24' 11" W  View metadata report for BODC series reference number 167955
1679671978-08-30 04:35 58° 54' 29" N  12° 24' 11" W  View metadata report for BODC series reference number 167967
1679791978-08-30 04:40 58° 54' 29" N  12° 24' 11" W  View metadata report for BODC series reference number 167979
1679801978-08-30 04:45 58° 54' 29" N  12° 24' 11" W  View metadata report for BODC series reference number 167980
1679921978-08-30 04:51 58° 54' 29" N  12° 24' 11" W  View metadata report for BODC series reference number 167992
1680061978-08-30 04:55 58° 54' 29" N  12° 24' 11" W  View metadata report for BODC series reference number 168006
1680181978-08-30 05:00 58° 54' 29" N  12° 24' 11" W  View metadata report for BODC series reference number 168018
1680311978-08-30 05:05 58° 54' 29" N  12° 24' 11" W  View metadata report for BODC series reference number 168031
1680431978-08-30 05:10 58° 54' 29" N  12° 24' 11" W  View metadata report for BODC series reference number 168043
1680551978-08-30 05:15 58° 54' 29" N  12° 24' 11" W  View metadata report for BODC series reference number 168055
1680671978-08-30 05:20 58° 54' 29" N  12° 24' 11" W  View metadata report for BODC series reference number 168067
1680791978-08-30 05:25 58° 54' 29" N  12° 24' 11" W  View metadata report for BODC series reference number 168079
1680801978-08-30 05:30 58° 54' 29" N  12° 24' 11" W  View metadata report for BODC series reference number 168080
1680921978-08-30 05:35 58° 54' 29" N  12° 24' 11" W  View metadata report for BODC series reference number 168092
1681111978-08-30 05:40 58° 54' 29" N  12° 24' 11" W  View metadata report for BODC series reference number 168111
1681231978-08-30 05:45 58° 54' 29" N  12° 24' 11" W  View metadata report for BODC series reference number 168123
1681351978-08-30 05:50 58° 54' 29" N  12° 24' 11" W  View metadata report for BODC series reference number 168135
1678021978-08-30 03:10 58° 54' 41" N  12° 24' 29" W  View metadata report for BODC series reference number 167802
1678141978-08-30 03:20 58° 54' 41" N  12° 24' 29" W  View metadata report for BODC series reference number 167814
1678261978-08-30 03:25 58° 54' 41" N  12° 24' 29" W  View metadata report for BODC series reference number 167826
1678381978-08-30 03:30 58° 54' 41" N  12° 24' 29" W  View metadata report for BODC series reference number 167838
1678511978-08-30 03:35 58° 54' 41" N  12° 24' 29" W  View metadata report for BODC series reference number 167851
1674821978-08-30 00:40 58° 54' 41" N  12° 24' 29" W  View metadata report for BODC series reference number 167482
1674941978-08-30 00:45 58° 54' 41" N  12° 24' 29" W  View metadata report for BODC series reference number 167494
1675011978-08-30 00:50 58° 54' 41" N  12° 24' 29" W  View metadata report for BODC series reference number 167501
1675131978-08-30 00:55 58° 54' 41" N  12° 24' 29" W  View metadata report for BODC series reference number 167513
1675251978-08-30 01:00 58° 54' 41" N  12° 24' 29" W  View metadata report for BODC series reference number 167525
1675371978-08-30 01:05 58° 54' 41" N  12° 24' 29" W  View metadata report for BODC series reference number 167537
1675491978-08-30 01:10 58° 54' 41" N  12° 24' 29" W  View metadata report for BODC series reference number 167549
1675501978-08-30 01:15 58° 54' 41" N  12° 24' 29" W  View metadata report for BODC series reference number 167550
1675621978-08-30 01:20 58° 54' 41" N  12° 24' 29" W  View metadata report for BODC series reference number 167562
1675741978-08-30 01:25 58° 54' 41" N  12° 24' 29" W  View metadata report for BODC series reference number 167574
1675861978-08-30 01:30 58° 54' 41" N  12° 24' 29" W  View metadata report for BODC series reference number 167586
1675981978-08-30 01:35 58° 54' 41" N  12° 24' 29" W  View metadata report for BODC series reference number 167598
1676051978-08-30 01:40 58° 54' 41" N  12° 24' 29" W  View metadata report for BODC series reference number 167605
1676171978-08-30 01:45 58° 54' 41" N  12° 24' 29" W  View metadata report for BODC series reference number 167617
1676291978-08-30 01:50 58° 54' 41" N  12° 24' 29" W  View metadata report for BODC series reference number 167629
1676301978-08-30 01:55 58° 54' 41" N  12° 24' 29" W  View metadata report for BODC series reference number 167630
1676421978-08-30 02:00 58° 54' 41" N  12° 24' 29" W  View metadata report for BODC series reference number 167642
1676541978-08-30 02:05 58° 54' 41" N  12° 24' 29" W  View metadata report for BODC series reference number 167654
1676661978-08-30 02:10 58° 54' 41" N  12° 24' 29" W  View metadata report for BODC series reference number 167666
1676781978-08-30 02:15 58° 54' 41" N  12° 24' 29" W  View metadata report for BODC series reference number 167678
1676911978-08-30 02:20 58° 54' 41" N  12° 24' 29" W  View metadata report for BODC series reference number 167691
1677091978-08-30 02:25 58° 54' 41" N  12° 24' 29" W  View metadata report for BODC series reference number 167709
1677101978-08-30 02:30 58° 54' 41" N  12° 24' 29" W  View metadata report for BODC series reference number 167710
1677221978-08-30 02:35 58° 54' 41" N  12° 24' 29" W  View metadata report for BODC series reference number 167722
1677341978-08-30 02:40 58° 54' 41" N  12° 24' 29" W  View metadata report for BODC series reference number 167734
1677461978-08-30 02:45 58° 54' 41" N  12° 24' 29" W  View metadata report for BODC series reference number 167746
1677581978-08-30 02:50 58° 54' 41" N  12° 24' 29" W  View metadata report for BODC series reference number 167758
1677711978-08-30 02:55 58° 54' 41" N  12° 24' 29" W  View metadata report for BODC series reference number 167771
1677831978-08-30 03:00 58° 54' 41" N  12° 24' 29" W  View metadata report for BODC series reference number 167783
1677951978-08-30 03:05 58° 54' 41" N  12° 24' 29" W  View metadata report for BODC series reference number 167795
1674331978-08-30 00:15 58° 54' 41" N  12° 24' 29" W  View metadata report for BODC series reference number 167433
1674451978-08-30 00:20 58° 54' 41" N  12° 24' 29" W  View metadata report for BODC series reference number 167445
1674571978-08-30 00:25 58° 54' 41" N  12° 24' 29" W  View metadata report for BODC series reference number 167457
1674691978-08-30 00:30 58° 54' 41" N  12° 24' 29" W  View metadata report for BODC series reference number 167469
1674701978-08-30 00:35 58° 54' 41" N  12° 24' 29" W  View metadata report for BODC series reference number 167470
1670881978-08-29 21:40 58° 54' 35" N  12° 25' 5" W  View metadata report for BODC series reference number 167088
1671071978-08-29 21:45 58° 54' 35" N  12° 25' 5" W  View metadata report for BODC series reference number 167107
1671191978-08-29 21:50 58° 54' 35" N  12° 25' 5" W  View metadata report for BODC series reference number 167119
1671201978-08-29 21:55 58° 54' 35" N  12° 25' 5" W  View metadata report for BODC series reference number 167120
1671321978-08-29 22:05 58° 54' 41" N  12° 24' 29" W  View metadata report for BODC series reference number 167132
1671441978-08-29 22:10 58° 54' 41" N  12° 24' 29" W  View metadata report for BODC series reference number 167144
1671561978-08-29 22:15 58° 54' 41" N  12° 24' 29" W  View metadata report for BODC series reference number 167156
1671681978-08-29 22:20 58° 54' 41" N  12° 24' 29" W  View metadata report for BODC series reference number 167168
1671811978-08-29 22:25 58° 54' 41" N  12° 24' 29" W  View metadata report for BODC series reference number 167181
1671931978-08-29 22:30 58° 54' 41" N  12° 24' 29" W  View metadata report for BODC series reference number 167193
1672001978-08-29 22:35 58° 54' 41" N  12° 24' 29" W  View metadata report for BODC series reference number 167200
1672121978-08-29 22:40 58° 54' 41" N  12° 24' 29" W  View metadata report for BODC series reference number 167212
1672241978-08-29 22:45 58° 54' 41" N  12° 24' 29" W  View metadata report for BODC series reference number 167224
1672361978-08-29 22:50 58° 54' 41" N  12° 24' 29" W  View metadata report for BODC series reference number 167236
1672481978-08-29 22:55 58° 54' 41" N  12° 24' 29" W  View metadata report for BODC series reference number 167248
1672611978-08-29 23:00 58° 54' 41" N  12° 24' 29" W  View metadata report for BODC series reference number 167261
1672731978-08-29 23:05 58° 54' 41" N  12° 24' 29" W  View metadata report for BODC series reference number 167273
1672851978-08-29 23:10 58° 54' 41" N  12° 24' 29" W  View metadata report for BODC series reference number 167285
1672971978-08-29 23:15 58° 54' 41" N  12° 24' 29" W  View metadata report for BODC series reference number 167297
1673041978-08-29 23:20 58° 54' 41" N  12° 24' 29" W  View metadata report for BODC series reference number 167304
1673161978-08-29 23:25 58° 54' 41" N  12° 24' 29" W  View metadata report for BODC series reference number 167316
1673281978-08-29 23:30 58° 54' 41" N  12° 24' 29" W  View metadata report for BODC series reference number 167328
1673411978-08-29 23:35 58° 54' 41" N  12° 24' 29" W  View metadata report for BODC series reference number 167341
1673531978-08-29 23:40 58° 54' 41" N  12° 24' 29" W  View metadata report for BODC series reference number 167353
1673651978-08-29 23:45 58° 54' 41" N  12° 24' 29" W  View metadata report for BODC series reference number 167365
1673771978-08-29 23:50 58° 54' 41" N  12° 24' 29" W  View metadata report for BODC series reference number 167377
1673891978-08-29 23:55 58° 54' 41" N  12° 24' 29" W  View metadata report for BODC series reference number 167389
1673901978-08-30 00:00 58° 54' 41" N  12° 24' 29" W  View metadata report for BODC series reference number 167390
1674081978-08-30 00:05 58° 54' 41" N  12° 24' 29" W  View metadata report for BODC series reference number 167408
1674211978-08-30 00:10 58° 54' 41" N  12° 24' 29" W  View metadata report for BODC series reference number 167421
1669641978-08-29 20:45 58° 54' 35" N  12° 25' 5" W  View metadata report for BODC series reference number 166964
1669761978-08-29 20:50 58° 54' 35" N  12° 25' 5" W  View metadata report for BODC series reference number 166976
1669881978-08-29 20:55 58° 54' 35" N  12° 25' 5" W  View metadata report for BODC series reference number 166988
1670031978-08-29 21:00 58° 54' 35" N  12° 25' 5" W  View metadata report for BODC series reference number 167003
1670151978-08-29 21:05 58° 54' 35" N  12° 25' 5" W  View metadata report for BODC series reference number 167015
1670271978-08-29 21:10 58° 54' 35" N  12° 25' 5" W  View metadata report for BODC series reference number 167027
1670391978-08-29 21:15 58° 54' 35" N  12° 25' 5" W  View metadata report for BODC series reference number 167039
1670401978-08-29 21:20 58° 54' 35" N  12° 25' 5" W  View metadata report for BODC series reference number 167040
1670521978-08-29 21:25 58° 54' 35" N  12° 25' 5" W  View metadata report for BODC series reference number 167052
1670641978-08-29 21:30 58° 54' 35" N  12° 25' 5" W  View metadata report for BODC series reference number 167064
1670761978-08-29 21:35 58° 54' 35" N  12° 25' 5" W  View metadata report for BODC series reference number 167076
1667061978-08-29 18:45 58° 54' 35" N  12° 25' 5" W  View metadata report for BODC series reference number 166706
1667181978-08-29 18:50 58° 54' 35" N  12° 25' 5" W  View metadata report for BODC series reference number 166718
1667311978-08-29 18:55 58° 54' 35" N  12° 25' 5" W  View metadata report for BODC series reference number 166731
1667431978-08-29 19:00 58° 54' 35" N  12° 25' 5" W  View metadata report for BODC series reference number 166743
1667551978-08-29 19:05 58° 54' 35" N  12° 25' 5" W  View metadata report for BODC series reference number 166755
1667671978-08-29 19:10 58° 54' 35" N  12° 25' 5" W  View metadata report for BODC series reference number 166767
1667791978-08-29 19:15 58° 54' 35" N  12° 25' 5" W  View metadata report for BODC series reference number 166779
1667801978-08-29 19:20 58° 54' 35" N  12° 25' 5" W  View metadata report for BODC series reference number 166780
1667921978-08-29 19:25 58° 54' 35" N  12° 25' 5" W  View metadata report for BODC series reference number 166792
1668111978-08-29 19:30 58° 54' 35" N  12° 25' 5" W  View metadata report for BODC series reference number 166811
1668231978-08-29 19:35 58° 54' 35" N  12° 25' 5" W  View metadata report for BODC series reference number 166823
1668351978-08-29 19:40 58° 54' 35" N  12° 25' 5" W  View metadata report for BODC series reference number 166835
1668471978-08-29 19:45 58° 54' 35" N  12° 25' 5" W  View metadata report for BODC series reference number 166847
1668591978-08-29 19:50 58° 54' 35" N  12° 25' 5" W  View metadata report for BODC series reference number 166859
1668601978-08-29 19:55 58° 54' 35" N  12° 25' 5" W  View metadata report for BODC series reference number 166860
1668721978-08-29 20:00 58° 54' 35" N  12° 25' 5" W  View metadata report for BODC series reference number 166872
1668841978-08-29 20:05 58° 54' 35" N  12° 25' 5" W  View metadata report for BODC series reference number 166884
1668961978-08-29 20:10 58° 54' 35" N  12° 25' 5" W  View metadata report for BODC series reference number 166896
1669031978-08-29 20:15 58° 54' 35" N  12° 25' 5" W  View metadata report for BODC series reference number 166903
1669151978-08-29 20:20 58° 54' 35" N  12° 25' 5" W  View metadata report for BODC series reference number 166915
1669271978-08-29 20:25 58° 54' 35" N  12° 25' 5" W  View metadata report for BODC series reference number 166927
1669391978-08-29 20:30 58° 54' 35" N  12° 25' 5" W  View metadata report for BODC series reference number 166939
1669401978-08-29 20:35 58° 54' 35" N  12° 25' 5" W  View metadata report for BODC series reference number 166940
1669521978-08-29 20:40 58° 54' 35" N  12° 25' 5" W  View metadata report for BODC series reference number 166952
1666511978-08-29 18:20 58° 54' 35" N  12° 25' 5" W  View metadata report for BODC series reference number 166651
1666631978-08-29 18:25 58° 54' 35" N  12° 25' 5" W  View metadata report for BODC series reference number 166663
1666751978-08-29 18:30 58° 54' 35" N  12° 25' 5" W  View metadata report for BODC series reference number 166675
1666871978-08-29 18:35 58° 54' 35" N  12° 25' 5" W  View metadata report for BODC series reference number 166687
1666991978-08-29 18:40 58° 54' 35" N  12° 25' 5" W  View metadata report for BODC series reference number 166699
1663251978-08-29 15:40 58° 55' 47" N  12° 24' 47" W  View metadata report for BODC series reference number 166325
1663371978-08-29 15:45 58° 55' 47" N  12° 24' 47" W  View metadata report for BODC series reference number 166337
1663491978-08-29 15:50 58° 55' 47" N  12° 24' 47" W  View metadata report for BODC series reference number 166349
1663501978-08-29 15:55 58° 55' 47" N  12° 24' 47" W  View metadata report for BODC series reference number 166350
1663621978-08-29 16:10 58° 54' 35" N  12° 25' 5" W  View metadata report for BODC series reference number 166362
1663741978-08-29 16:15 58° 54' 35" N  12° 25' 5" W  View metadata report for BODC series reference number 166374
1663861978-08-29 16:20 58° 54' 35" N  12° 25' 5" W  View metadata report for BODC series reference number 166386
1663981978-08-29 16:25 58° 54' 35" N  12° 25' 5" W  View metadata report for BODC series reference number 166398
1664051978-08-29 16:30 58° 54' 35" N  12° 25' 5" W  View metadata report for BODC series reference number 166405
1664171978-08-29 16:35 58° 54' 35" N  12° 25' 5" W  View metadata report for BODC series reference number 166417
1664291978-08-29 16:40 58° 54' 35" N  12° 25' 5" W  View metadata report for BODC series reference number 166429
1664301978-08-29 16:45 58° 54' 35" N  12° 25' 5" W  View metadata report for BODC series reference number 166430
1664421978-08-29 16:50 58° 54' 35" N  12° 25' 5" W  View metadata report for BODC series reference number 166442
1664541978-08-29 16:55 58° 54' 35" N  12° 25' 5" W  View metadata report for BODC series reference number 166454
1664661978-08-29 17:00 58° 54' 35" N  12° 25' 5" W  View metadata report for BODC series reference number 166466
1664781978-08-29 17:05 58° 54' 35" N  12° 25' 5" W  View metadata report for BODC series reference number 166478
1664911978-08-29 17:10 58° 54' 35" N  12° 25' 5" W  View metadata report for BODC series reference number 166491
1665091978-08-29 17:15 58° 54' 35" N  12° 25' 5" W  View metadata report for BODC series reference number 166509
1665101978-08-29 17:20 58° 54' 35" N  12° 25' 5" W  View metadata report for BODC series reference number 166510
1665221978-08-29 17:25 58° 54' 35" N  12° 25' 5" W  View metadata report for BODC series reference number 166522
1665341978-08-29 17:30 58° 54' 35" N  12° 25' 5" W  View metadata report for BODC series reference number 166534
1665461978-08-29 17:35 58° 54' 35" N  12° 25' 5" W  View metadata report for BODC series reference number 166546
1665581978-08-29 17:40 58° 54' 35" N  12° 25' 5" W  View metadata report for BODC series reference number 166558
1665711978-08-29 17:45 58° 54' 35" N  12° 25' 5" W  View metadata report for BODC series reference number 166571
1665831978-08-29 17:50 58° 54' 35" N  12° 25' 5" W  View metadata report for BODC series reference number 166583
1665951978-08-29 17:56 58° 54' 35" N  12° 25' 5" W  View metadata report for BODC series reference number 166595
1666021978-08-29 18:00 58° 54' 35" N  12° 25' 5" W  View metadata report for BODC series reference number 166602
1666141978-08-29 18:05 58° 54' 35" N  12° 25' 5" W  View metadata report for BODC series reference number 166614
1666261978-08-29 18:10 58° 54' 35" N  12° 25' 5" W  View metadata report for BODC series reference number 166626
1666381978-08-29 18:15 58° 54' 35" N  12° 25' 5" W  View metadata report for BODC series reference number 166638
1662211978-08-29 14:50 58° 55' 47" N  12° 24' 47" W  View metadata report for BODC series reference number 166221
1662331978-08-29 14:55 58° 55' 47" N  12° 24' 47" W  View metadata report for BODC series reference number 166233
1662451978-08-29 15:00 58° 55' 47" N  12° 24' 47" W  View metadata report for BODC series reference number 166245
1662571978-08-29 15:05 58° 55' 47" N  12° 24' 47" W  View metadata report for BODC series reference number 166257
1662691978-08-29 15:10 58° 55' 47" N  12° 24' 47" W  View metadata report for BODC series reference number 166269
1662701978-08-29 15:15 58° 55' 47" N  12° 24' 47" W  View metadata report for BODC series reference number 166270
1662821978-08-29 15:20 58° 55' 47" N  12° 24' 47" W  View metadata report for BODC series reference number 166282
1662941978-08-29 15:25 58° 55' 47" N  12° 24' 47" W  View metadata report for BODC series reference number 166294
1663011978-08-29 15:30 58° 55' 47" N  12° 24' 47" W  View metadata report for BODC series reference number 166301
1663131978-08-29 15:35 58° 55' 47" N  12° 24' 47" W  View metadata report for BODC series reference number 166313
1659241978-08-29 12:40 58° 55' 47" N  12° 24' 47" W  View metadata report for BODC series reference number 165924
1659361978-08-29 12:45 58° 55' 47" N  12° 24' 47" W  View metadata report for BODC series reference number 165936
1659481978-08-29 12:50 58° 55' 47" N  12° 24' 47" W  View metadata report for BODC series reference number 165948
1659611978-08-29 12:55 58° 55' 47" N  12° 24' 47" W  View metadata report for BODC series reference number 165961
1659731978-08-29 13:00 58° 55' 47" N  12° 24' 47" W  View metadata report for BODC series reference number 165973
1659851978-08-29 13:05 58° 55' 47" N  12° 24' 47" W  View metadata report for BODC series reference number 165985
1659971978-08-29 13:10 58° 55' 47" N  12° 24' 47" W  View metadata report for BODC series reference number 165997
1660001978-08-29 13:15 58° 55' 47" N  12° 24' 47" W  View metadata report for BODC series reference number 166000
1660121978-08-29 13:20 58° 55' 47" N  12° 24' 47" W  View metadata report for BODC series reference number 166012
1660241978-08-29 13:25 58° 55' 47" N  12° 24' 47" W  View metadata report for BODC series reference number 166024
1660361978-08-29 13:30 58° 55' 47" N  12° 24' 47" W  View metadata report for BODC series reference number 166036
1660481978-08-29 13:35 58° 55' 47" N  12° 24' 47" W  View metadata report for BODC series reference number 166048
1660611978-08-29 13:40 58° 55' 47" N  12° 24' 47" W  View metadata report for BODC series reference number 166061
1660731978-08-29 13:45 58° 55' 47" N  12° 24' 47" W  View metadata report for BODC series reference number 166073
1699131978-08-31 07:55 58° 51' 29" N  12° 11' 47" W  View metadata report for BODC series reference number 169913
1699251978-08-31 22:00 58° 58' 17" N  12° 25' 35" W  View metadata report for BODC series reference number 169925
1699371978-08-31 22:10 58° 58' 17" N  12° 25' 35" W  View metadata report for BODC series reference number 169937
1699491978-08-31 22:15 58° 58' 17" N  12° 25' 35" W  View metadata report for BODC series reference number 169949
1660851978-08-29 13:50 58° 55' 47" N  12° 24' 47" W  View metadata report for BODC series reference number 166085
1660971978-08-29 13:55 58° 55' 47" N  12° 24' 47" W  View metadata report for BODC series reference number 166097
1661041978-08-29 14:00 58° 55' 47" N  12° 24' 47" W  View metadata report for BODC series reference number 166104
1661161978-08-29 14:05 58° 55' 47" N  12° 24' 47" W  View metadata report for BODC series reference number 166116
1661281978-08-29 14:10 58° 55' 47" N  12° 24' 47" W  View metadata report for BODC series reference number 166128
1661411978-08-29 14:15 58° 55' 47" N  12° 24' 47" W  View metadata report for BODC series reference number 166141
1661531978-08-29 14:20 58° 55' 47" N  12° 24' 47" W  View metadata report for BODC series reference number 166153
1661651978-08-29 14:25 58° 55' 47" N  12° 24' 47" W  View metadata report for BODC series reference number 166165
1661771978-08-29 14:30 58° 55' 47" N  12° 24' 47" W  View metadata report for BODC series reference number 166177
1661891978-08-29 14:35 58° 55' 47" N  12° 24' 47" W  View metadata report for BODC series reference number 166189
1661901978-08-29 14:40 58° 55' 47" N  12° 24' 47" W  View metadata report for BODC series reference number 166190
1662081978-08-29 14:45 58° 55' 47" N  12° 24' 47" W  View metadata report for BODC series reference number 166208
1658191978-08-29 11:50 58° 55' 47" N  12° 24' 47" W  View metadata report for BODC series reference number 165819
1658201978-08-29 11:55 58° 55' 47" N  12° 24' 47" W  View metadata report for BODC series reference number 165820
1658321978-08-29 12:00 58° 55' 47" N  12° 24' 47" W  View metadata report for BODC series reference number 165832
1658441978-08-29 12:05 58° 55' 47" N  12° 24' 47" W  View metadata report for BODC series reference number 165844
1658561978-08-29 12:10 58° 55' 47" N  12° 24' 47" W  View metadata report for BODC series reference number 165856
1658681978-08-29 12:15 58° 55' 47" N  12° 24' 47" W  View metadata report for BODC series reference number 165868
1658811978-08-29 12:20 58° 55' 47" N  12° 24' 47" W  View metadata report for BODC series reference number 165881
1658931978-08-29 12:25 58° 55' 47" N  12° 24' 47" W  View metadata report for BODC series reference number 165893
1659001978-08-29 12:30 58° 55' 47" N  12° 24' 47" W  View metadata report for BODC series reference number 165900
1659121978-08-29 12:35 58° 55' 47" N  12° 24' 47" W  View metadata report for BODC series reference number 165912
1655431978-08-29 09:30 58° 55' 59" N  12° 25' 11" W  View metadata report for BODC series reference number 165543
1655551978-08-29 09:35 58° 55' 59" N  12° 25' 11" W  View metadata report for BODC series reference number 165555
1655671978-08-29 09:40 58° 55' 59" N  12° 25' 11" W  View metadata report for BODC series reference number 165567
1655791978-08-29 09:45 58° 55' 59" N  12° 25' 11" W  View metadata report for BODC series reference number 165579
1655801978-08-29 10:05 58° 55' 47" N  12° 24' 47" W  View metadata report for BODC series reference number 165580
1655921978-08-29 10:10 58° 55' 47" N  12° 24' 47" W  View metadata report for BODC series reference number 165592
1656111978-08-29 10:15 58° 55' 47" N  12° 24' 47" W  View metadata report for BODC series reference number 165611
1656231978-08-29 10:20 58° 55' 47" N  12° 24' 47" W  View metadata report for BODC series reference number 165623
1656351978-08-29 10:25 58° 55' 47" N  12° 24' 47" W  View metadata report for BODC series reference number 165635
1656471978-08-29 10:30 58° 55' 47" N  12° 24' 47" W  View metadata report for BODC series reference number 165647
1656591978-08-29 10:35 58° 55' 47" N  12° 24' 47" W  View metadata report for BODC series reference number 165659
1656601978-08-29 10:40 58° 55' 47" N  12° 24' 47" W  View metadata report for BODC series reference number 165660
1656721978-08-29 10:45 58° 55' 47" N  12° 24' 47" W  View metadata report for BODC series reference number 165672
1656841978-08-29 10:50 58° 55' 47" N  12° 24' 47" W  View metadata report for BODC series reference number 165684
1656961978-08-29 10:55 58° 55' 47" N  12° 24' 47" W  View metadata report for BODC series reference number 165696
1657031978-08-29 11:00 58° 55' 47" N  12° 24' 47" W  View metadata report for BODC series reference number 165703
1657151978-08-29 11:05 58° 55' 47" N  12° 24' 47" W  View metadata report for BODC series reference number 165715
1657271978-08-29 11:10 58° 55' 47" N  12° 24' 47" W  View metadata report for BODC series reference number 165727
1657391978-08-29 11:15 58° 55' 47" N  12° 24' 47" W  View metadata report for BODC series reference number 165739
1657401978-08-29 11:20 58° 55' 47" N  12° 24' 47" W  View metadata report for BODC series reference number 165740
1657521978-08-29 11:25 58° 55' 47" N  12° 24' 47" W  View metadata report for BODC series reference number 165752
1657641978-08-29 11:30 58° 55' 47" N  12° 24' 47" W  View metadata report for BODC series reference number 165764
1657761978-08-29 11:35 58° 55' 47" N  12° 24' 47" W  View metadata report for BODC series reference number 165776
1657881978-08-29 11:40 58° 55' 47" N  12° 24' 47" W  View metadata report for BODC series reference number 165788
1658071978-08-29 11:45 58° 55' 47" N  12° 24' 47" W  View metadata report for BODC series reference number 165807
1654871978-08-29 09:05 58° 55' 59" N  12° 25' 11" W  View metadata report for BODC series reference number 165487
1654991978-08-29 09:10 58° 55' 59" N  12° 25' 11" W  View metadata report for BODC series reference number 165499
1655061978-08-29 09:15 58° 55' 59" N  12° 25' 11" W  View metadata report for BODC series reference number 165506
1655181978-08-29 09:20 58° 55' 59" N  12° 25' 11" W  View metadata report for BODC series reference number 165518
1655311978-08-29 09:25 58° 55' 59" N  12° 25' 11" W  View metadata report for BODC series reference number 165531
1651501978-08-29 03:50 58° 57' 23" N  12° 27' 24" W  View metadata report for BODC series reference number 165150
1651621978-08-29 03:55 58° 57' 23" N  12° 27' 24" W  View metadata report for BODC series reference number 165162
1651741978-08-29 04:00 58° 57' 23" N  12° 27' 24" W  View metadata report for BODC series reference number 165174
1651861978-08-29 04:05 58° 57' 23" N  12° 27' 24" W  View metadata report for BODC series reference number 165186
1699501978-08-31 22:20 58° 58' 17" N  12° 25' 35" W  View metadata report for BODC series reference number 169950
1699621978-08-31 22:25 58° 58' 17" N  12° 25' 35" W  View metadata report for BODC series reference number 169962
1696001978-08-31 05:25 58° 53' 42" N  12° 13' 59" W  View metadata report for BODC series reference number 169600
1696121978-08-31 05:30 58° 53' 42" N  12° 13' 59" W  View metadata report for BODC series reference number 169612
1696241978-08-31 05:35 58° 53' 42" N  12° 13' 59" W  View metadata report for BODC series reference number 169624
1696361978-08-31 05:40 58° 53' 42" N  12° 13' 59" W  View metadata report for BODC series reference number 169636
1696481978-08-31 05:45 58° 53' 42" N  12° 13' 59" W  View metadata report for BODC series reference number 169648
1696611978-08-31 05:50 58° 53' 42" N  12° 13' 59" W  View metadata report for BODC series reference number 169661
1696731978-08-31 05:55 58° 53' 42" N  12° 13' 59" W  View metadata report for BODC series reference number 169673
1696851978-08-31 06:10 58° 51' 29" N  12° 11' 47" W  View metadata report for BODC series reference number 169685
1696971978-08-31 06:15 58° 51' 29" N  12° 11' 47" W  View metadata report for BODC series reference number 169697
1697041978-08-31 06:20 58° 51' 29" N  12° 11' 47" W  View metadata report for BODC series reference number 169704
1697161978-08-31 06:25 58° 51' 29" N  12° 11' 47" W  View metadata report for BODC series reference number 169716
1697281978-08-31 06:30 58° 51' 29" N  12° 11' 47" W  View metadata report for BODC series reference number 169728
1697411978-08-31 06:35 58° 51' 29" N  12° 11' 47" W  View metadata report for BODC series reference number 169741
1697531978-08-31 06:40 58° 51' 29" N  12° 11' 47" W  View metadata report for BODC series reference number 169753
1697651978-08-31 06:45 58° 51' 29" N  12° 11' 47" W  View metadata report for BODC series reference number 169765
1697771978-08-31 06:50 58° 51' 29" N  12° 11' 47" W  View metadata report for BODC series reference number 169777
1697891978-08-31 06:55 58° 51' 29" N  12° 11' 47" W  View metadata report for BODC series reference number 169789
1697901978-08-31 07:00 58° 51' 29" N  12° 11' 47" W  View metadata report for BODC series reference number 169790
1698081978-08-31 07:05 58° 51' 29" N  12° 11' 47" W  View metadata report for BODC series reference number 169808
1698211978-08-31 07:10 58° 51' 29" N  12° 11' 47" W  View metadata report for BODC series reference number 169821
1698331978-08-31 07:15 58° 51' 29" N  12° 11' 47" W  View metadata report for BODC series reference number 169833
1698451978-08-31 07:20 58° 51' 29" N  12° 11' 47" W  View metadata report for BODC series reference number 169845
1698571978-08-31 07:25 58° 51' 29" N  12° 11' 47" W  View metadata report for BODC series reference number 169857
1698691978-08-31 07:30 58° 51' 29" N  12° 11' 47" W  View metadata report for BODC series reference number 169869
1698701978-08-31 07:35 58° 51' 29" N  12° 11' 47" W  View metadata report for BODC series reference number 169870
1698821978-08-31 07:40 58° 51' 29" N  12° 11' 47" W  View metadata report for BODC series reference number 169882
1698941978-08-31 07:45 58° 51' 29" N  12° 11' 47" W  View metadata report for BODC series reference number 169894
1699011978-08-31 07:50 58° 51' 29" N  12° 11' 47" W  View metadata report for BODC series reference number 169901
1695201978-08-31 04:50 58° 53' 42" N  12° 13' 59" W  View metadata report for BODC series reference number 169520
1695321978-08-31 04:55 58° 53' 42" N  12° 13' 59" W  View metadata report for BODC series reference number 169532
1695441978-08-31 05:00 58° 53' 42" N  12° 13' 59" W  View metadata report for BODC series reference number 169544
1695561978-08-31 05:05 58° 53' 42" N  12° 13' 59" W  View metadata report for BODC series reference number 169556
1695681978-08-31 05:10 58° 53' 42" N  12° 13' 59" W  View metadata report for BODC series reference number 169568
1695811978-08-31 05:15 58° 53' 42" N  12° 13' 59" W  View metadata report for BODC series reference number 169581
1695931978-08-31 05:20 58° 53' 42" N  12° 13' 59" W  View metadata report for BODC series reference number 169593
1692181978-08-31 02:30 58° 53' 42" N  12° 13' 59" W  View metadata report for BODC series reference number 169218
1692311978-08-31 02:35 58° 53' 42" N  12° 13' 59" W  View metadata report for BODC series reference number 169231
1692431978-08-31 02:40 58° 53' 42" N  12° 13' 59" W  View metadata report for BODC series reference number 169243
1692551978-08-31 02:45 58° 53' 42" N  12° 13' 59" W  View metadata report for BODC series reference number 169255
1692671978-08-31 02:50 58° 53' 42" N  12° 13' 59" W  View metadata report for BODC series reference number 169267
1692791978-08-31 02:55 58° 53' 42" N  12° 13' 59" W  View metadata report for BODC series reference number 169279
1692801978-08-31 03:00 58° 53' 42" N  12° 13' 59" W  View metadata report for BODC series reference number 169280
1692921978-08-31 03:05 58° 53' 42" N  12° 13' 59" W  View metadata report for BODC series reference number 169292
1693111978-08-31 03:10 58° 53' 42" N  12° 13' 59" W  View metadata report for BODC series reference number 169311
1693231978-08-31 03:15 58° 53' 42" N  12° 13' 59" W  View metadata report for BODC series reference number 169323
1693351978-08-31 03:20 58° 53' 42" N  12° 13' 59" W  View metadata report for BODC series reference number 169335
1693471978-08-31 03:25 58° 53' 42" N  12° 13' 59" W  View metadata report for BODC series reference number 169347
1693591978-08-31 03:30 58° 53' 42" N  12° 13' 59" W  View metadata report for BODC series reference number 169359
1693601978-08-31 03:35 58° 53' 42" N  12° 13' 59" W  View metadata report for BODC series reference number 169360
1693721978-08-31 03:40 58° 53' 42" N  12° 13' 59" W  View metadata report for BODC series reference number 169372
1693841978-08-31 03:45 58° 53' 42" N  12° 13' 59" W  View metadata report for BODC series reference number 169384
1693961978-08-31 03:50 58° 53' 42" N  12° 13' 59" W  View metadata report for BODC series reference number 169396
1694031978-08-31 03:55 58° 53' 42" N  12° 13' 59" W  View metadata report for BODC series reference number 169403
1694151978-08-31 04:00 58° 53' 42" N  12° 13' 59" W  View metadata report for BODC series reference number 169415
1651981978-08-29 04:10 58° 57' 23" N  12° 27' 24" W  View metadata report for BODC series reference number 165198
1652051978-08-29 04:15 58° 57' 23" N  12° 27' 24" W  View metadata report for BODC series reference number 165205
1652171978-08-29 04:20 58° 57' 23" N  12° 27' 24" W  View metadata report for BODC series reference number 165217
1652291978-08-29 04:25 58° 57' 23" N  12° 27' 24" W  View metadata report for BODC series reference number 165229
1652301978-08-29 04:30 58° 57' 23" N  12° 27' 24" W  View metadata report for BODC series reference number 165230
1652421978-08-29 04:35 58° 57' 23" N  12° 27' 24" W  View metadata report for BODC series reference number 165242
1652541978-08-29 04:40 58° 57' 23" N  12° 27' 24" W  View metadata report for BODC series reference number 165254
1652661978-08-29 04:45 58° 57' 23" N  12° 27' 24" W  View metadata report for BODC series reference number 165266
1652781978-08-29 04:50 58° 57' 23" N  12° 27' 24" W  View metadata report for BODC series reference number 165278
1652911978-08-29 04:55 58° 57' 23" N  12° 27' 24" W  View metadata report for BODC series reference number 165291
1653091978-08-29 05:00 58° 57' 23" N  12° 27' 24" W  View metadata report for BODC series reference number 165309
1653101978-08-29 05:05 58° 57' 23" N  12° 27' 24" W  View metadata report for BODC series reference number 165310
1653221978-08-29 05:10 58° 57' 23" N  12° 27' 24" W  View metadata report for BODC series reference number 165322
1653341978-08-29 05:15 58° 57' 23" N  12° 27' 24" W  View metadata report for BODC series reference number 165334
1653461978-08-29 05:20 58° 57' 23" N  12° 27' 24" W  View metadata report for BODC series reference number 165346
1653581978-08-29 05:25 58° 57' 23" N  12° 27' 24" W  View metadata report for BODC series reference number 165358
1653711978-08-29 05:30 58° 57' 23" N  12° 27' 24" W  View metadata report for BODC series reference number 165371
1653831978-08-29 05:35 58° 57' 23" N  12° 27' 24" W  View metadata report for BODC series reference number 165383
1653951978-08-29 05:40 58° 57' 23" N  12° 27' 24" W  View metadata report for BODC series reference number 165395
1654021978-08-29 05:45 58° 57' 23" N  12° 27' 24" W  View metadata report for BODC series reference number 165402
1654141978-08-29 05:50 58° 57' 23" N  12° 27' 24" W  View metadata report for BODC series reference number 165414
1654261978-08-29 05:55 58° 57' 23" N  12° 27' 24" W  View metadata report for BODC series reference number 165426
1654381978-08-29 06:00 58° 57' 23" N  12° 27' 24" W  View metadata report for BODC series reference number 165438
1654511978-08-29 06:05 58° 57' 23" N  12° 27' 24" W  View metadata report for BODC series reference number 165451
1654631978-08-29 06:10 58° 57' 23" N  12° 27' 24" W  View metadata report for BODC series reference number 165463
1654751978-08-29 09:00 58° 55' 59" N  12° 25' 11" W  View metadata report for BODC series reference number 165475
1651011978-08-29 03:25 58° 57' 23" N  12° 27' 24" W  View metadata report for BODC series reference number 165101
1651131978-08-29 03:30 58° 57' 23" N  12° 27' 24" W  View metadata report for BODC series reference number 165113
1651251978-08-29 03:35 58° 57' 23" N  12° 27' 24" W  View metadata report for BODC series reference number 165125
1651371978-08-29 03:40 58° 57' 23" N  12° 27' 24" W  View metadata report for BODC series reference number 165137
1651491978-08-29 03:45 58° 57' 23" N  12° 27' 24" W  View metadata report for BODC series reference number 165149
1647731978-08-29 00:45 58° 57' 23" N  12° 27' 24" W  View metadata report for BODC series reference number 164773
1647851978-08-29 00:50 58° 57' 23" N  12° 27' 24" W  View metadata report for BODC series reference number 164785
1647971978-08-29 00:55 58° 57' 23" N  12° 27' 24" W  View metadata report for BODC series reference number 164797
1648041978-08-29 01:00 58° 57' 23" N  12° 27' 24" W  View metadata report for BODC series reference number 164804
1648161978-08-29 01:05 58° 57' 23" N  12° 27' 24" W  View metadata report for BODC series reference number 164816
1648281978-08-29 01:11 58° 57' 23" N  12° 27' 24" W  View metadata report for BODC series reference number 164828
1648411978-08-29 01:16 58° 57' 23" N  12° 27' 24" W  View metadata report for BODC series reference number 164841
1648531978-08-29 01:20 58° 57' 23" N  12° 27' 24" W  View metadata report for BODC series reference number 164853
1648651978-08-29 01:25 58° 57' 23" N  12° 27' 24" W  View metadata report for BODC series reference number 164865
1648771978-08-29 01:30 58° 57' 23" N  12° 27' 24" W  View metadata report for BODC series reference number 164877
1648891978-08-29 01:41 58° 57' 23" N  12° 27' 24" W  View metadata report for BODC series reference number 164889
1648901978-08-29 01:45 58° 57' 23" N  12° 27' 24" W  View metadata report for BODC series reference number 164890
1649081978-08-29 01:50 58° 57' 23" N  12° 27' 24" W  View metadata report for BODC series reference number 164908
1649211978-08-29 01:55 58° 57' 23" N  12° 27' 24" W  View metadata report for BODC series reference number 164921
1649331978-08-29 02:00 58° 57' 23" N  12° 27' 24" W  View metadata report for BODC series reference number 164933
1649451978-08-29 02:05 58° 57' 23" N  12° 27' 24" W  View metadata report for BODC series reference number 164945
1649571978-08-29 02:10 58° 57' 23" N  12° 27' 24" W  View metadata report for BODC series reference number 164957
1649691978-08-29 02:15 58° 57' 23" N  12° 27' 24" W  View metadata report for BODC series reference number 164969
1649701978-08-29 02:20 58° 57' 23" N  12° 27' 24" W  View metadata report for BODC series reference number 164970
1649821978-08-29 02:25 58° 57' 23" N  12° 27' 24" W  View metadata report for BODC series reference number 164982
1649941978-08-29 02:30 58° 57' 23" N  12° 27' 24" W  View metadata report for BODC series reference number 164994
1650081978-08-29 02:41 58° 57' 23" N  12° 27' 24" W  View metadata report for BODC series reference number 165008
1650211978-08-29 02:45 58° 57' 23" N  12° 27' 24" W  View metadata report for BODC series reference number 165021
1650331978-08-29 02:50 58° 57' 23" N  12° 27' 24" W  View metadata report for BODC series reference number 165033
1650451978-08-29 02:55 58° 57' 23" N  12° 27' 24" W  View metadata report for BODC series reference number 165045
1694271978-08-31 04:05 58° 53' 42" N  12° 13' 59" W  View metadata report for BODC series reference number 169427
1694391978-08-31 04:10 58° 53' 42" N  12° 13' 59" W  View metadata report for BODC series reference number 169439
1694401978-08-31 04:15 58° 53' 42" N  12° 13' 59" W  View metadata report for BODC series reference number 169440
1694521978-08-31 04:20 58° 53' 42" N  12° 13' 59" W  View metadata report for BODC series reference number 169452
1694641978-08-31 04:25 58° 53' 42" N  12° 13' 59" W  View metadata report for BODC series reference number 169464
1694761978-08-31 04:30 58° 53' 42" N  12° 13' 59" W  View metadata report for BODC series reference number 169476
1694881978-08-31 04:35 58° 53' 42" N  12° 13' 59" W  View metadata report for BODC series reference number 169488
1695071978-08-31 04:40 58° 53' 42" N  12° 13' 59" W  View metadata report for BODC series reference number 169507
1695191978-08-31 04:45 58° 53' 42" N  12° 13' 59" W  View metadata report for BODC series reference number 169519
1707781978-09-02 12:35 59° 26' 11" N  12° 29' 17" W  View metadata report for BODC series reference number 170778
1691511978-08-31 02:00 58° 53' 42" N  12° 13' 59" W  View metadata report for BODC series reference number 169151
1691631978-08-31 02:05 58° 53' 42" N  12° 13' 59" W  View metadata report for BODC series reference number 169163
1691751978-08-31 02:10 58° 53' 42" N  12° 13' 59" W  View metadata report for BODC series reference number 169175
1691871978-08-31 02:15 58° 53' 42" N  12° 13' 59" W  View metadata report for BODC series reference number 169187
1691991978-08-31 02:20 58° 53' 42" N  12° 13' 59" W  View metadata report for BODC series reference number 169199
1692061978-08-31 02:25 58° 53' 42" N  12° 13' 59" W  View metadata report for BODC series reference number 169206
1704891978-09-02 02:33 58° 59' 5" N  12° 46' 35" W  View metadata report for BODC series reference number 170489
1704901978-09-02 03:30 58° 52' 59" N  12° 46' 35" W  View metadata report for BODC series reference number 170490
1705081978-09-02 04:30 58° 51' 11" N  12° 36' 11" W  View metadata report for BODC series reference number 170508
1705211978-09-02 05:28 58° 51' 23" N  12° 24' 53" W  View metadata report for BODC series reference number 170521
1705331978-09-02 10:15 59° 26' 11" N  12° 29' 17" W  View metadata report for BODC series reference number 170533
1705451978-09-02 10:40 59° 26' 11" N  12° 29' 17" W  View metadata report for BODC series reference number 170545
1705571978-09-02 10:45 59° 26' 11" N  12° 29' 17" W  View metadata report for BODC series reference number 170557
1705691978-09-02 10:50 59° 26' 11" N  12° 29' 17" W  View metadata report for BODC series reference number 170569
1705701978-09-02 10:55 59° 26' 11" N  12° 29' 17" W  View metadata report for BODC series reference number 170570
1705821978-09-02 11:00 59° 26' 11" N  12° 29' 17" W  View metadata report for BODC series reference number 170582
1705941978-09-02 11:05 59° 26' 11" N  12° 29' 17" W  View metadata report for BODC series reference number 170594
1706011978-09-02 11:10 59° 26' 11" N  12° 29' 17" W  View metadata report for BODC series reference number 170601
1706131978-09-02 11:15 59° 26' 11" N  12° 29' 17" W  View metadata report for BODC series reference number 170613
1706251978-09-02 11:20 59° 26' 11" N  12° 29' 17" W  View metadata report for BODC series reference number 170625
1706371978-09-02 11:25 59° 26' 11" N  12° 29' 17" W  View metadata report for BODC series reference number 170637
1706491978-09-02 11:30 59° 26' 11" N  12° 29' 17" W  View metadata report for BODC series reference number 170649
1706501978-09-02 11:35 59° 26' 11" N  12° 29' 17" W  View metadata report for BODC series reference number 170650
1706621978-09-02 11:40 59° 26' 11" N  12° 29' 17" W  View metadata report for BODC series reference number 170662
1706741978-09-02 11:45 59° 26' 11" N  12° 29' 17" W  View metadata report for BODC series reference number 170674
1706861978-09-02 11:50 59° 26' 11" N  12° 29' 17" W  View metadata report for BODC series reference number 170686
1706981978-09-02 11:55 59° 26' 11" N  12° 29' 17" W  View metadata report for BODC series reference number 170698
1707051978-09-02 12:00 59° 26' 11" N  12° 29' 17" W  View metadata report for BODC series reference number 170705
1707171978-09-02 12:05 59° 26' 11" N  12° 29' 17" W  View metadata report for BODC series reference number 170717
1707291978-09-02 12:10 59° 26' 11" N  12° 29' 17" W  View metadata report for BODC series reference number 170729
1707301978-09-02 12:15 59° 26' 11" N  12° 29' 17" W  View metadata report for BODC series reference number 170730
1707421978-09-02 12:20 59° 26' 11" N  12° 29' 17" W  View metadata report for BODC series reference number 170742
1707541978-09-02 12:25 59° 26' 11" N  12° 29' 17" W  View metadata report for BODC series reference number 170754
1707661978-09-02 12:30 59° 26' 11" N  12° 29' 17" W  View metadata report for BODC series reference number 170766
1703851978-09-01 19:08 58° 51' 23" N  12° 12' 59" W  View metadata report for BODC series reference number 170385
1704041978-09-01 20:10 58° 57' 36" N  12° 13' 5" W  View metadata report for BODC series reference number 170404
1704161978-09-01 21:05 59° 3' 23" N  12° 13' 5" W  View metadata report for BODC series reference number 170416
1704281978-09-01 22:01 59° 9' 23" N  12° 13' 29" W  View metadata report for BODC series reference number 170428
1704411978-09-01 22:55 59° 9' 23" N  12° 24' 29" W  View metadata report for BODC series reference number 170441
1704531978-09-01 23:51 59° 9' 35" N  12° 36' 5" W  View metadata report for BODC series reference number 170453
1704651978-09-02 00:47 59° 9' 53" N  12° 47' 53" W  View metadata report for BODC series reference number 170465
1704771978-09-02 01:40 59° 4' 30" N  12° 47' 29" W  View metadata report for BODC series reference number 170477
1700841978-09-01 01:44 59° 2' 35" N  12° 36' 29" W  View metadata report for BODC series reference number 170084
1700961978-09-01 02:08 59° 1' 5" N  12° 36' 29" W  View metadata report for BODC series reference number 170096
1701031978-09-01 02:32 58° 59' 48" N  12° 36' 29" W  View metadata report for BODC series reference number 170103
1701151978-09-01 03:00 58° 57' 59" N  12° 36' 29" W  View metadata report for BODC series reference number 170115
1650571978-08-29 03:00 58° 57' 23" N  12° 27' 24" W  View metadata report for BODC series reference number 165057
1650691978-08-29 03:05 58° 57' 23" N  12° 27' 24" W  View metadata report for BODC series reference number 165069
1650701978-08-29 03:10 58° 57' 23" N  12° 27' 24" W  View metadata report for BODC series reference number 165070
1650821978-08-29 03:15 58° 57' 23" N  12° 27' 24" W  View metadata report for BODC series reference number 165082
1650941978-08-29 03:20 58° 57' 23" N  12° 27' 24" W  View metadata report for BODC series reference number 165094
1646441978-08-28 23:15 58° 58' 11" N  12° 28' 48" W  View metadata report for BODC series reference number 164644
1646561978-08-28 23:20 58° 58' 11" N  12° 28' 48" W  View metadata report for BODC series reference number 164656
1646681978-08-28 23:25 58° 58' 11" N  12° 28' 48" W  View metadata report for BODC series reference number 164668
1646811978-08-28 23:30 58° 58' 11" N  12° 28' 48" W  View metadata report for BODC series reference number 164681
1646931978-08-29 00:11 58° 57' 23" N  12° 27' 24" W  View metadata report for BODC series reference number 164693
1647001978-08-29 00:16 58° 57' 23" N  12° 27' 24" W  View metadata report for BODC series reference number 164700
1647121978-08-29 00:20 58° 57' 23" N  12° 27' 24" W  View metadata report for BODC series reference number 164712
1647241978-08-29 00:25 58° 57' 23" N  12° 27' 24" W  View metadata report for BODC series reference number 164724
1647361978-08-29 00:30 58° 57' 23" N  12° 27' 24" W  View metadata report for BODC series reference number 164736
1647481978-08-29 00:35 58° 57' 23" N  12° 27' 24" W  View metadata report for BODC series reference number 164748
1647611978-08-29 00:40 58° 57' 23" N  12° 27' 24" W  View metadata report for BODC series reference number 164761
1643791978-08-28 21:10 58° 58' 11" N  12° 28' 48" W  View metadata report for BODC series reference number 164379
1643801978-08-28 21:15 58° 58' 11" N  12° 28' 48" W  View metadata report for BODC series reference number 164380
1643921978-08-28 21:20 58° 58' 11" N  12° 28' 48" W  View metadata report for BODC series reference number 164392
1644111978-08-28 21:25 58° 58' 11" N  12° 28' 48" W  View metadata report for BODC series reference number 164411
1644231978-08-28 21:30 58° 58' 11" N  12° 28' 48" W  View metadata report for BODC series reference number 164423
1644351978-08-28 21:35 58° 58' 11" N  12° 28' 48" W  View metadata report for BODC series reference number 164435
1644471978-08-28 21:40 58° 58' 11" N  12° 28' 48" W  View metadata report for BODC series reference number 164447
1644591978-08-28 21:45 58° 58' 11" N  12° 28' 48" W  View metadata report for BODC series reference number 164459
1644601978-08-28 21:50 58° 58' 11" N  12° 28' 48" W  View metadata report for BODC series reference number 164460
1644721978-08-28 21:55 58° 58' 11" N  12° 28' 48" W  View metadata report for BODC series reference number 164472
1644841978-08-28 22:00 58° 58' 11" N  12° 28' 48" W  View metadata report for BODC series reference number 164484
1644961978-08-28 22:05 58° 58' 11" N  12° 28' 48" W  View metadata report for BODC series reference number 164496
1645031978-08-28 22:10 58° 58' 11" N  12° 28' 48" W  View metadata report for BODC series reference number 164503
1645151978-08-28 22:15 58° 58' 11" N  12° 28' 48" W  View metadata report for BODC series reference number 164515
1645271978-08-28 22:20 58° 58' 11" N  12° 28' 48" W  View metadata report for BODC series reference number 164527
1645391978-08-28 22:25 58° 58' 11" N  12° 28' 48" W  View metadata report for BODC series reference number 164539
1645401978-08-28 22:30 58° 58' 11" N  12° 28' 48" W  View metadata report for BODC series reference number 164540
1645521978-08-28 22:35 58° 58' 11" N  12° 28' 48" W  View metadata report for BODC series reference number 164552
1645641978-08-28 22:40 58° 58' 11" N  12° 28' 48" W  View metadata report for BODC series reference number 164564
1645761978-08-28 22:45 58° 58' 11" N  12° 28' 48" W  View metadata report for BODC series reference number 164576
1645881978-08-28 22:50 58° 58' 11" N  12° 28' 48" W  View metadata report for BODC series reference number 164588
1646071978-08-28 22:55 58° 58' 11" N  12° 28' 48" W  View metadata report for BODC series reference number 164607
1646191978-08-28 23:00 58° 58' 11" N  12° 28' 48" W  View metadata report for BODC series reference number 164619
1646201978-08-28 23:05 58° 58' 11" N  12° 28' 48" W  View metadata report for BODC series reference number 164620
1646321978-08-28 23:10 58° 58' 11" N  12° 28' 48" W  View metadata report for BODC series reference number 164632
1643181978-08-28 15:30 58° 58' 23" N  12° 32' 53" W  View metadata report for BODC series reference number 164318
1643311978-08-28 15:40 58° 58' 23" N  12° 32' 53" W  View metadata report for BODC series reference number 164331
1643431978-08-28 15:50 58° 58' 23" N  12° 32' 53" W  View metadata report for BODC series reference number 164343
1643551978-08-28 21:00 58° 58' 11" N  12° 28' 48" W  View metadata report for BODC series reference number 164355
1643671978-08-28 21:05 58° 58' 11" N  12° 28' 48" W  View metadata report for BODC series reference number 164367
1639781978-08-28 01:55 58° 58' 59" N  12° 28' 59" W  View metadata report for BODC series reference number 163978
1639911978-08-28 02:00 58° 58' 59" N  12° 28' 59" W  View metadata report for BODC series reference number 163991
1640051978-08-28 02:05 58° 58' 59" N  12° 28' 59" W  View metadata report for BODC series reference number 164005
1640171978-08-28 02:10 58° 58' 59" N  12° 28' 59" W  View metadata report for BODC series reference number 164017
1640291978-08-28 02:15 58° 58' 59" N  12° 28' 59" W  View metadata report for BODC series reference number 164029
1640301978-08-28 02:20 58° 58' 59" N  12° 28' 59" W  View metadata report for BODC series reference number 164030
1640421978-08-28 02:25 58° 58' 59" N  12° 28' 59" W  View metadata report for BODC series reference number 164042
1640541978-08-28 02:30 58° 58' 59" N  12° 28' 59" W  View metadata report for BODC series reference number 164054
1640661978-08-28 03:00 58° 58' 47" N  12° 30' 59" W  View metadata report for BODC series reference number 164066
1640781978-08-28 03:30 58° 58' 47" N  12° 30' 59" W  View metadata report for BODC series reference number 164078
1701271978-09-01 03:24 58° 58' 17" N  12° 34' 12" W  View metadata report for BODC series reference number 170127
1701391978-09-01 03:50 58° 58' 30" N  12° 30' 29" W  View metadata report for BODC series reference number 170139
1701401978-09-01 04:16 58° 56' 35" N  12° 27' 18" W  View metadata report for BODC series reference number 170140
1701521978-09-01 04:36 58° 58' 11" N  12° 24' 42" W  View metadata report for BODC series reference number 170152
1701641978-09-01 05:25 58° 59' 48" N  12° 24' 17" W  View metadata report for BODC series reference number 170164
1701761978-09-01 05:50 59° 1' 5" N  12° 25' 5" W  View metadata report for BODC series reference number 170176
1701881978-09-01 06:15 59° 2' 29" N  12° 25' 5" W  View metadata report for BODC series reference number 170188
1702071978-09-01 06:40 59° 2' 35" N  12° 27' 47" W  View metadata report for BODC series reference number 170207
1702191978-09-01 07:05 59° 2' 35" N  12° 30' 11" W  View metadata report for BODC series reference number 170219
1702201978-09-01 07:30 59° 2' 29" N  12° 33' 29" W  View metadata report for BODC series reference number 170220
1702321978-09-01 07:55 59° 2' 29" N  12° 35' 59" W  View metadata report for BODC series reference number 170232
1702441978-09-01 08:20 59° 1' 0" N  12° 36' 29" W  View metadata report for BODC series reference number 170244
1702561978-09-01 08:45 58° 59' 41" N  12° 36' 24" W  View metadata report for BODC series reference number 170256
1702681978-09-01 09:10 58° 58' 5" N  12° 36' 42" W  View metadata report for BODC series reference number 170268
1702811978-09-01 09:36 58° 57' 59" N  12° 34' 18" W  View metadata report for BODC series reference number 170281
1702931978-09-01 10:01 58° 57' 59" N  12° 30' 47" W  View metadata report for BODC series reference number 170293
1703001978-09-01 10:26 58° 58' 11" N  12° 22' 59" W  View metadata report for BODC series reference number 170300
1703121978-09-01 10:52 58° 57' 59" N  12° 25' 11" W  View metadata report for BODC series reference number 170312
1703241978-09-01 11:05 58° 57' 59" N  12° 25' 11" W  View metadata report for BODC series reference number 170324
1703361978-09-01 14:15 59° 2' 47" N  12° 24' 29" W  View metadata report for BODC series reference number 170336
1703481978-09-01 15:12 59° 2' 47" N  12° 37' 0" W  View metadata report for BODC series reference number 170348
1703611978-09-01 16:00 58° 58' 17" N  12° 36' 29" W  View metadata report for BODC series reference number 170361
1703731978-09-01 18:10 58° 51' 23" N  12° 24' 41" W  View metadata report for BODC series reference number 170373
1699981978-08-31 22:40 58° 58' 17" N  12° 25' 35" W  View metadata report for BODC series reference number 169998
1700111978-08-31 22:45 58° 58' 17" N  12° 25' 35" W  View metadata report for BODC series reference number 170011
1700231978-08-31 23:15 58° 59' 41" N  12° 24' 47" W  View metadata report for BODC series reference number 170023
1700351978-08-31 23:40 59° 1' 0" N  12° 24' 47" W  View metadata report for BODC series reference number 170035
1700471978-09-01 00:04 59° 2' 29" N  12° 25' 0" W  View metadata report for BODC series reference number 170047
1700591978-09-01 00:29 59° 2' 35" N  12° 27' 47" W  View metadata report for BODC series reference number 170059
1700601978-09-01 00:53 59° 2' 35" N  12° 30' 47" W  View metadata report for BODC series reference number 170060
1700721978-09-01 01:19 59° 2' 35" N  12° 33' 29" W  View metadata report for BODC series reference number 170072
1713391978-09-02 16:50 59° 26' 6" N  12° 30' 23" W  View metadata report for BODC series reference number 171339
1713401978-09-02 16:55 59° 26' 6" N  12° 30' 23" W  View metadata report for BODC series reference number 171340
1713521978-09-02 17:00 59° 26' 6" N  12° 30' 23" W  View metadata report for BODC series reference number 171352
1713641978-09-02 17:05 59° 26' 6" N  12° 30' 23" W  View metadata report for BODC series reference number 171364
1713761978-09-02 17:10 59° 26' 6" N  12° 30' 23" W  View metadata report for BODC series reference number 171376
1713881978-09-02 17:15 59° 26' 6" N  12° 30' 23" W  View metadata report for BODC series reference number 171388
1714071978-09-02 17:20 59° 26' 6" N  12° 30' 23" W  View metadata report for BODC series reference number 171407
1714191978-09-02 17:25 59° 26' 6" N  12° 30' 23" W  View metadata report for BODC series reference number 171419
1714201978-09-02 17:30 59° 26' 6" N  12° 30' 23" W  View metadata report for BODC series reference number 171420
1714321978-09-02 17:35 59° 26' 6" N  12° 30' 23" W  View metadata report for BODC series reference number 171432
1714441978-09-02 17:40 59° 26' 6" N  12° 30' 23" W  View metadata report for BODC series reference number 171444
1714561978-09-02 17:45 59° 26' 6" N  12° 30' 23" W  View metadata report for BODC series reference number 171456
1714681978-09-02 17:50 59° 26' 6" N  12° 30' 23" W  View metadata report for BODC series reference number 171468
1714811978-09-02 17:55 59° 26' 6" N  12° 30' 23" W  View metadata report for BODC series reference number 171481
1714931978-09-02 18:00 59° 26' 6" N  12° 30' 23" W  View metadata report for BODC series reference number 171493
1715001978-09-02 18:05 59° 26' 6" N  12° 30' 23" W  View metadata report for BODC series reference number 171500
1715121978-09-02 18:10 59° 26' 6" N  12° 30' 23" W  View metadata report for BODC series reference number 171512
1715241978-09-02 18:15 59° 26' 6" N  12° 30' 23" W  View metadata report for BODC series reference number 171524
1715361978-09-02 18:20 59° 26' 6" N  12° 30' 23" W  View metadata report for BODC series reference number 171536
1715481978-09-02 18:25 59° 26' 6" N  12° 30' 23" W  View metadata report for BODC series reference number 171548
1715611978-09-02 18:30 59° 26' 6" N  12° 30' 23" W  View metadata report for BODC series reference number 171561
1715731978-09-02 18:35 59° 26' 6" N  12° 30' 23" W  View metadata report for BODC series reference number 171573
1715851978-09-02 18:40 59° 26' 6" N  12° 30' 23" W  View metadata report for BODC series reference number 171585
1715971978-09-02 18:45 59° 26' 6" N  12° 30' 23" W  View metadata report for BODC series reference number 171597
1716041978-09-02 18:50 59° 26' 6" N  12° 30' 23" W  View metadata report for BODC series reference number 171604
1640911978-08-28 04:00 58° 58' 47" N  12° 30' 59" W  View metadata report for BODC series reference number 164091
1641091978-08-28 04:30 58° 58' 47" N  12° 30' 59" W  View metadata report for BODC series reference number 164109
1641101978-08-28 05:06 58° 58' 47" N  12° 30' 59" W  View metadata report for BODC series reference number 164110
1641221978-08-28 05:30 58° 58' 47" N  12° 30' 59" W  View metadata report for BODC series reference number 164122
1641341978-08-28 06:00 58° 58' 47" N  12° 30' 59" W  View metadata report for BODC series reference number 164134
1641461978-08-28 06:30 58° 58' 47" N  12° 30' 59" W  View metadata report for BODC series reference number 164146
1641581978-08-28 07:00 58° 58' 47" N  12° 30' 59" W  View metadata report for BODC series reference number 164158
1641711978-08-28 07:33 58° 57' 41" N  12° 30' 59" W  View metadata report for BODC series reference number 164171
1641831978-08-28 13:30 58° 58' 23" N  12° 32' 53" W  View metadata report for BODC series reference number 164183
1641951978-08-28 13:40 58° 58' 23" N  12° 32' 53" W  View metadata report for BODC series reference number 164195
1642021978-08-28 13:50 58° 58' 23" N  12° 32' 53" W  View metadata report for BODC series reference number 164202
1642141978-08-28 14:00 58° 58' 23" N  12° 32' 53" W  View metadata report for BODC series reference number 164214
1642261978-08-28 14:10 58° 58' 23" N  12° 32' 53" W  View metadata report for BODC series reference number 164226
1642381978-08-28 14:20 58° 58' 23" N  12° 32' 53" W  View metadata report for BODC series reference number 164238
1642511978-08-28 14:30 58° 58' 23" N  12° 32' 53" W  View metadata report for BODC series reference number 164251
1642631978-08-28 14:40 58° 58' 23" N  12° 32' 53" W  View metadata report for BODC series reference number 164263
1642751978-08-28 14:53 58° 58' 23" N  12° 32' 53" W  View metadata report for BODC series reference number 164275
1642871978-08-28 15:00 58° 58' 23" N  12° 32' 53" W  View metadata report for BODC series reference number 164287
1642991978-08-28 15:10 58° 58' 23" N  12° 32' 53" W  View metadata report for BODC series reference number 164299
1643061978-08-28 15:20 58° 58' 23" N  12° 32' 53" W  View metadata report for BODC series reference number 164306
1637701978-08-27 22:00 58° 57' 47" N  12° 30' 29" W  View metadata report for BODC series reference number 163770
1637821978-08-27 22:30 58° 57' 47" N  12° 30' 29" W  View metadata report for BODC series reference number 163782
1637941978-08-27 23:00 58° 57' 47" N  12° 30' 29" W  View metadata report for BODC series reference number 163794
1638011978-08-27 23:30 58° 57' 47" N  12° 30' 29" W  View metadata report for BODC series reference number 163801
1638131978-08-28 00:35 58° 58' 59" N  12° 28' 59" W  View metadata report for BODC series reference number 163813
1638251978-08-28 00:40 58° 58' 59" N  12° 28' 59" W  View metadata report for BODC series reference number 163825
1638371978-08-28 00:45 58° 58' 59" N  12° 28' 59" W  View metadata report for BODC series reference number 163837
1638491978-08-28 00:50 58° 58' 59" N  12° 28' 59" W  View metadata report for BODC series reference number 163849
1638501978-08-28 00:55 58° 58' 59" N  12° 28' 59" W  View metadata report for BODC series reference number 163850
1638621978-08-28 01:00 58° 58' 59" N  12° 28' 59" W  View metadata report for BODC series reference number 163862
1638741978-08-28 01:05 58° 58' 59" N  12° 28' 59" W  View metadata report for BODC series reference number 163874
1638861978-08-28 01:10 58° 58' 59" N  12° 28' 59" W  View metadata report for BODC series reference number 163886
1638981978-08-28 01:15 58° 58' 59" N  12° 28' 59" W  View metadata report for BODC series reference number 163898
1639051978-08-28 01:20 58° 58' 59" N  12° 28' 59" W  View metadata report for BODC series reference number 163905
1639171978-08-28 01:25 58° 58' 59" N  12° 28' 59" W  View metadata report for BODC series reference number 163917
1639291978-08-28 01:30 58° 58' 59" N  12° 28' 59" W  View metadata report for BODC series reference number 163929
1639301978-08-28 01:35 58° 58' 59" N  12° 28' 59" W  View metadata report for BODC series reference number 163930
1639421978-08-28 01:40 58° 58' 59" N  12° 28' 59" W  View metadata report for BODC series reference number 163942
1639541978-08-28 01:45 58° 58' 59" N  12° 28' 59" W  View metadata report for BODC series reference number 163954
1639661978-08-28 01:50 58° 58' 59" N  12° 28' 59" W  View metadata report for BODC series reference number 163966
1635971978-08-27 13:56 58° 57' 59" N  12° 27' 53" W  View metadata report for BODC series reference number 163597
1636041978-08-27 14:20 58° 57' 59" N  12° 27' 53" W  View metadata report for BODC series reference number 163604
1636161978-08-27 14:45 59° 2' 47" N  12° 24' 53" W  View metadata report for BODC series reference number 163616
1636281978-08-27 15:10 59° 2' 47" N  12° 24' 53" W  View metadata report for BODC series reference number 163628
1636411978-08-27 15:35 59° 2' 23" N  12° 29' 29" W  View metadata report for BODC series reference number 163641
1636531978-08-27 16:00 59° 2' 42" N  12° 36' 29" W  View metadata report for BODC series reference number 163653
1636651978-08-27 16:25 59° 1' 17" N  12° 36' 23" W  View metadata report for BODC series reference number 163665
1636771978-08-27 16:50 58° 59' 41" N  12° 36' 29" W  View metadata report for BODC series reference number 163677
1636891978-08-27 17:15 58° 58' 11" N  12° 36' 23" W  View metadata report for BODC series reference number 163689
1636901978-08-27 17:40 58° 57' 41" N  12° 34' 29" W  View metadata report for BODC series reference number 163690
1637081978-08-27 18:05 58° 58' 11" N  12° 30' 29" W  View metadata report for BODC series reference number 163708
1637211978-08-27 18:30 58° 57' 47" N  12° 27' 41" W  View metadata report for BODC series reference number 163721
1637331978-08-27 18:55 58° 58' 11" N  12° 24' 47" W  View metadata report for BODC series reference number 163733
1637451978-08-27 20:30 58° 57' 47" N  12° 30' 29" W  View metadata report for BODC series reference number 163745
1637571978-08-27 21:00 58° 57' 47" N  12° 30' 29" W  View metadata report for BODC series reference number 163757
1637691978-08-27 21:30 58° 57' 47" N  12° 30' 29" W  View metadata report for BODC series reference number 163769
1716161978-09-02 18:55 59° 26' 6" N  12° 30' 23" W  View metadata report for BODC series reference number 171616
1699741978-08-31 22:30 58° 58' 17" N  12° 25' 35" W  View metadata report for BODC series reference number 169974
1699861978-08-31 22:35 58° 58' 17" N  12° 25' 35" W  View metadata report for BODC series reference number 169986
1711551978-09-02 15:25 59° 26' 6" N  12° 30' 23" W  View metadata report for BODC series reference number 171155
1711671978-09-02 15:30 59° 26' 6" N  12° 30' 23" W  View metadata report for BODC series reference number 171167
1711791978-09-02 15:35 59° 26' 6" N  12° 30' 23" W  View metadata report for BODC series reference number 171179
1711801978-09-02 15:40 59° 26' 6" N  12° 30' 23" W  View metadata report for BODC series reference number 171180
1711921978-09-02 15:45 59° 26' 6" N  12° 30' 23" W  View metadata report for BODC series reference number 171192
1712111978-09-02 15:50 59° 26' 6" N  12° 30' 23" W  View metadata report for BODC series reference number 171211
1712231978-09-02 15:55 59° 26' 6" N  12° 30' 23" W  View metadata report for BODC series reference number 171223
1712351978-09-02 16:00 59° 26' 6" N  12° 30' 23" W  View metadata report for BODC series reference number 171235
1712471978-09-02 16:05 59° 26' 6" N  12° 30' 23" W  View metadata report for BODC series reference number 171247
1712591978-09-02 16:10 59° 26' 6" N  12° 30' 23" W  View metadata report for BODC series reference number 171259
1712601978-09-02 16:15 59° 26' 6" N  12° 30' 23" W  View metadata report for BODC series reference number 171260
1712721978-09-02 16:20 59° 26' 6" N  12° 30' 23" W  View metadata report for BODC series reference number 171272
1712841978-09-02 16:25 59° 26' 6" N  12° 30' 23" W  View metadata report for BODC series reference number 171284
1712961978-09-02 16:30 59° 26' 6" N  12° 30' 23" W  View metadata report for BODC series reference number 171296
1713031978-09-02 16:35 59° 26' 6" N  12° 30' 23" W  View metadata report for BODC series reference number 171303
1713151978-09-02 16:40 59° 26' 6" N  12° 30' 23" W  View metadata report for BODC series reference number 171315
1713271978-09-02 16:45 59° 26' 6" N  12° 30' 23" W  View metadata report for BODC series reference number 171327
1709381978-09-02 13:45 59° 26' 11" N  12° 29' 17" W  View metadata report for BODC series reference number 170938
1709511978-09-02 13:50 59° 26' 11" N  12° 29' 17" W  View metadata report for BODC series reference number 170951
1709631978-09-02 13:55 59° 26' 11" N  12° 29' 17" W  View metadata report for BODC series reference number 170963
1709751978-09-02 14:00 59° 26' 11" N  12° 29' 17" W  View metadata report for BODC series reference number 170975
1709871978-09-02 14:05 59° 26' 11" N  12° 29' 17" W  View metadata report for BODC series reference number 170987
1709991978-09-02 14:10 59° 26' 11" N  12° 29' 17" W  View metadata report for BODC series reference number 170999
1710021978-09-02 14:15 59° 26' 11" N  12° 29' 17" W  View metadata report for BODC series reference number 171002
1710141978-09-02 14:20 59° 26' 11" N  12° 29' 17" W  View metadata report for BODC series reference number 171014
1710261978-09-02 14:25 59° 26' 11" N  12° 29' 17" W  View metadata report for BODC series reference number 171026
1710381978-09-02 14:30 59° 26' 11" N  12° 29' 17" W  View metadata report for BODC series reference number 171038
1710511978-09-02 14:35 59° 26' 11" N  12° 29' 17" W  View metadata report for BODC series reference number 171051
1710631978-09-02 14:40 59° 26' 11" N  12° 29' 17" W  View metadata report for BODC series reference number 171063
1710751978-09-02 14:45 59° 26' 11" N  12° 29' 17" W  View metadata report for BODC series reference number 171075
1710871978-09-02 14:50 59° 26' 11" N  12° 29' 17" W  View metadata report for BODC series reference number 171087
1710991978-09-02 14:55 59° 26' 11" N  12° 29' 17" W  View metadata report for BODC series reference number 171099
1711061978-09-02 15:00 59° 26' 11" N  12° 29' 17" W  View metadata report for BODC series reference number 171106
1711181978-09-02 15:10 59° 26' 11" N  12° 29' 17" W  View metadata report for BODC series reference number 171118
1711311978-09-02 15:15 59° 26' 6" N  12° 30' 23" W  View metadata report for BODC series reference number 171131
1711431978-09-02 15:20 59° 26' 6" N  12° 30' 23" W  View metadata report for BODC series reference number 171143
1708581978-09-02 13:10 59° 26' 11" N  12° 29' 17" W  View metadata report for BODC series reference number 170858
1708711978-09-02 13:15 59° 26' 11" N  12° 29' 17" W  View metadata report for BODC series reference number 170871
1708831978-09-02 13:20 59° 26' 11" N  12° 29' 17" W  View metadata report for BODC series reference number 170883
1708951978-09-02 13:25 59° 26' 11" N  12° 29' 17" W  View metadata report for BODC series reference number 170895
1709021978-09-02 13:30 59° 26' 11" N  12° 29' 17" W  View metadata report for BODC series reference number 170902
1709141978-09-02 13:35 59° 26' 11" N  12° 29' 17" W  View metadata report for BODC series reference number 170914
1709261978-09-02 13:40 59° 26' 11" N  12° 29' 17" W  View metadata report for BODC series reference number 170926
1721951978-09-02 23:25 59° 26' 6" N  12° 29' 17" W  View metadata report for BODC series reference number 172195
1722021978-09-02 23:30 59° 26' 6" N  12° 29' 17" W  View metadata report for BODC series reference number 172202
1722141978-09-02 23:35 59° 26' 6" N  12° 29' 17" W  View metadata report for BODC series reference number 172214
1722261978-09-02 23:40 59° 26' 6" N  12° 29' 17" W  View metadata report for BODC series reference number 172226
1722381978-09-02 23:45 59° 26' 6" N  12° 29' 17" W  View metadata report for BODC series reference number 172238
1722511978-09-02 23:50 59° 26' 6" N  12° 29' 17" W  View metadata report for BODC series reference number 172251
1722631978-09-02 23:55 59° 26' 6" N  12° 29' 17" W  View metadata report for BODC series reference number 172263
1722751978-09-03 00:00 59° 26' 6" N  12° 29' 17" W  View metadata report for BODC series reference number 172275
1722871978-09-03 00:05 59° 26' 6" N  12° 29' 17" W  View metadata report for BODC series reference number 172287
1722991978-09-03 00:10 59° 26' 6" N  12° 29' 17" W  View metadata report for BODC series reference number 172299
1634681978-08-27 09:10 59° 2' 35" N  12° 30' 41" W  View metadata report for BODC series reference number 163468
1634811978-08-27 09:35 59° 2' 47" N  12° 33' 53" W  View metadata report for BODC series reference number 163481
1634931978-08-27 10:00 59° 2' 47" N  12° 30' 23" W  View metadata report for BODC series reference number 163493
1635001978-08-27 10:25 59° 1' 17" N  12° 36' 29" W  View metadata report for BODC series reference number 163500
1635121978-08-27 10:50 58° 59' 41" N  12° 36' 29" W  View metadata report for BODC series reference number 163512
1635241978-08-27 11:15 58° 58' 11" N  12° 36' 29" W  View metadata report for BODC series reference number 163524
1635361978-08-27 11:40 58° 58' 17" N  12° 33' 41" W  View metadata report for BODC series reference number 163536
1635481978-08-27 12:05 58° 58' 41" N  12° 34' 12" W  View metadata report for BODC series reference number 163548
1635611978-08-27 12:30 58° 58' 41" N  12° 34' 12" W  View metadata report for BODC series reference number 163561
1635731978-08-27 12:55 58° 57' 59" N  12° 27' 53" W  View metadata report for BODC series reference number 163573
1635851978-08-27 13:30 58° 57' 59" N  12° 27' 53" W  View metadata report for BODC series reference number 163585
1631921978-08-27 00:45 58° 58' 11" N  12° 24' 59" W  View metadata report for BODC series reference number 163192
1632111978-08-27 01:00 58° 58' 11" N  12° 24' 59" W  View metadata report for BODC series reference number 163211
1632231978-08-27 01:15 58° 58' 11" N  12° 24' 59" W  View metadata report for BODC series reference number 163223
1632351978-08-27 01:30 58° 58' 11" N  12° 24' 59" W  View metadata report for BODC series reference number 163235
1632471978-08-27 02:00 58° 58' 11" N  12° 24' 59" W  View metadata report for BODC series reference number 163247
1632591978-08-27 02:15 58° 58' 11" N  12° 24' 59" W  View metadata report for BODC series reference number 163259
1632601978-08-27 02:30 58° 58' 5" N  12° 25' 47" W  View metadata report for BODC series reference number 163260
1632721978-08-27 03:01 58° 57' 59" N  12° 24' 23" W  View metadata report for BODC series reference number 163272
1632841978-08-27 03:45 58° 57' 59" N  12° 24' 23" W  View metadata report for BODC series reference number 163284
1632961978-08-27 04:00 58° 57' 59" N  12° 24' 23" W  View metadata report for BODC series reference number 163296
1633031978-08-27 04:15 58° 57' 59" N  12° 24' 23" W  View metadata report for BODC series reference number 163303
1633151978-08-27 04:45 58° 58' 35" N  12° 24' 5" W  View metadata report for BODC series reference number 163315
1633271978-08-27 05:00 58° 58' 35" N  12° 24' 5" W  View metadata report for BODC series reference number 163327
1633391978-08-27 05:15 58° 58' 5" N  12° 24' 5" W  View metadata report for BODC series reference number 163339
1633401978-08-27 05:30 58° 57' 47" N  12° 23' 53" W  View metadata report for BODC series reference number 163340
1633521978-08-27 05:47 58° 57' 47" N  12° 23' 53" W  View metadata report for BODC series reference number 163352
1633641978-08-27 06:00 58° 57' 59" N  12° 23' 47" W  View metadata report for BODC series reference number 163364
1633761978-08-27 06:15 58° 57' 59" N  12° 23' 47" W  View metadata report for BODC series reference number 163376
1633881978-08-27 06:30 58° 57' 59" N  12° 23' 47" W  View metadata report for BODC series reference number 163388
1634071978-08-27 06:45 58° 57' 59" N  12° 23' 47" W  View metadata report for BODC series reference number 163407
1634191978-08-27 07:00 58° 57' 54" N  12° 25' 35" W  View metadata report for BODC series reference number 163419
1634201978-08-27 07:30 58° 59' 53" N  12° 24' 36" W  View metadata report for BODC series reference number 163420
1634321978-08-27 07:55 59° 1' 12" N  12° 24' 59" W  View metadata report for BODC series reference number 163432
1634441978-08-27 08:28 59° 2' 42" N  12° 24' 47" W  View metadata report for BODC series reference number 163444
1634561978-08-27 08:47 59° 2' 29" N  12° 27' 53" W  View metadata report for BODC series reference number 163456
1631431978-08-26 23:30 58° 57' 41" N  12° 24' 5" W  View metadata report for BODC series reference number 163143
1631551978-08-26 23:45 58° 57' 41" N  12° 24' 5" W  View metadata report for BODC series reference number 163155
1631671978-08-27 00:00 58° 57' 41" N  12° 24' 5" W  View metadata report for BODC series reference number 163167
1631791978-08-27 00:15 58° 57' 41" N  12° 24' 5" W  View metadata report for BODC series reference number 163179
1631801978-08-27 00:31 58° 57' 41" N  12° 24' 5" W  View metadata report for BODC series reference number 163180
1629381978-08-26 16:48 58° 57' 41" N  12° 25' 5" W  View metadata report for BODC series reference number 162938
1629511978-08-26 17:00 58° 57' 41" N  12° 25' 5" W  View metadata report for BODC series reference number 162951
1629631978-08-26 18:29 58° 58' 5" N  12° 24' 59" W  View metadata report for BODC series reference number 162963
1629751978-08-26 18:45 58° 58' 5" N  12° 24' 59" W  View metadata report for BODC series reference number 162975
1629871978-08-26 19:00 58° 58' 5" N  12° 24' 59" W  View metadata report for BODC series reference number 162987
1629991978-08-26 19:15 58° 58' 17" N  12° 25' 23" W  View metadata report for BODC series reference number 162999
1630021978-08-26 19:30 58° 58' 17" N  12° 25' 23" W  View metadata report for BODC series reference number 163002
1630141978-08-26 20:15 58° 58' 5" N  12° 26' 29" W  View metadata report for BODC series reference number 163014
1630261978-08-26 20:20 58° 58' 5" N  12° 26' 29" W  View metadata report for BODC series reference number 163026
1630381978-08-26 20:46 58° 57' 54" N  12° 26' 11" W  View metadata report for BODC series reference number 163038
1630511978-08-26 21:00 58° 57' 54" N  12° 26' 11" W  View metadata report for BODC series reference number 163051
1630631978-08-26 21:17 58° 57' 47" N  12° 25' 59" W  View metadata report for BODC series reference number 163063
1630751978-08-26 21:30 58° 57' 47" N  12° 25' 59" W  View metadata report for BODC series reference number 163075
1630871978-08-26 21:45 58° 57' 47" N  12° 25' 59" W  View metadata report for BODC series reference number 163087
1630991978-08-26 22:30 58° 57' 41" N  12° 24' 41" W  View metadata report for BODC series reference number 163099
1723061978-09-03 00:15 59° 26' 6" N  12° 29' 17" W  View metadata report for BODC series reference number 172306
1723181978-09-03 00:20 59° 26' 6" N  12° 29' 17" W  View metadata report for BODC series reference number 172318
1723311978-09-03 00:25 59° 26' 6" N  12° 29' 17" W  View metadata report for BODC series reference number 172331
1723431978-09-03 00:30 59° 26' 6" N  12° 29' 17" W  View metadata report for BODC series reference number 172343
1723551978-09-03 00:35 59° 26' 6" N  12° 29' 17" W  View metadata report for BODC series reference number 172355
1723671978-09-03 00:40 59° 26' 6" N  12° 29' 17" W  View metadata report for BODC series reference number 172367
1723791978-09-03 00:45 59° 26' 6" N  12° 29' 17" W  View metadata report for BODC series reference number 172379
1723801978-09-03 00:50 59° 26' 6" N  12° 29' 17" W  View metadata report for BODC series reference number 172380
1723921978-09-03 00:55 59° 26' 6" N  12° 29' 17" W  View metadata report for BODC series reference number 172392
1724111978-09-03 01:00 59° 26' 6" N  12° 29' 17" W  View metadata report for BODC series reference number 172411
1724231978-09-03 01:05 59° 26' 6" N  12° 29' 17" W  View metadata report for BODC series reference number 172423
1724351978-09-03 01:10 59° 26' 6" N  12° 29' 17" W  View metadata report for BODC series reference number 172435
1707911978-09-02 12:40 59° 26' 11" N  12° 29' 17" W  View metadata report for BODC series reference number 170791
1708091978-09-02 12:45 59° 26' 11" N  12° 29' 17" W  View metadata report for BODC series reference number 170809
1708101978-09-02 12:50 59° 26' 11" N  12° 29' 17" W  View metadata report for BODC series reference number 170810
1708221978-09-02 12:55 59° 26' 11" N  12° 29' 17" W  View metadata report for BODC series reference number 170822
1708341978-09-02 13:00 59° 26' 11" N  12° 29' 17" W  View metadata report for BODC series reference number 170834
1708461978-09-02 13:05 59° 26' 11" N  12° 29' 17" W  View metadata report for BODC series reference number 170846
1721101978-09-02 22:50 59° 26' 6" N  12° 29' 17" W  View metadata report for BODC series reference number 172110
1721221978-09-02 22:55 59° 26' 6" N  12° 29' 17" W  View metadata report for BODC series reference number 172122
1721341978-09-02 23:00 59° 26' 6" N  12° 29' 17" W  View metadata report for BODC series reference number 172134
1721461978-09-02 23:05 59° 26' 6" N  12° 29' 17" W  View metadata report for BODC series reference number 172146
1721581978-09-02 23:10 59° 26' 6" N  12° 29' 17" W  View metadata report for BODC series reference number 172158
1721711978-09-02 23:15 59° 26' 6" N  12° 29' 17" W  View metadata report for BODC series reference number 172171
1721831978-09-02 23:20 59° 26' 6" N  12° 29' 17" W  View metadata report for BODC series reference number 172183
1718131978-09-02 20:25 59° 26' 6" N  12° 30' 23" W  View metadata report for BODC series reference number 171813
1718251978-09-02 20:30 59° 26' 6" N  12° 30' 23" W  View metadata report for BODC series reference number 171825
1718371978-09-02 20:35 59° 26' 6" N  12° 30' 23" W  View metadata report for BODC series reference number 171837
1718491978-09-02 20:40 59° 26' 6" N  12° 30' 23" W  View metadata report for BODC series reference number 171849
1718501978-09-02 20:45 59° 26' 6" N  12° 30' 23" W  View metadata report for BODC series reference number 171850
1718621978-09-02 20:50 59° 26' 6" N  12° 30' 23" W  View metadata report for BODC series reference number 171862
1718741978-09-02 21:00 59° 26' 6" N  12° 29' 17" W  View metadata report for BODC series reference number 171874
1718861978-09-02 21:05 59° 26' 6" N  12° 29' 17" W  View metadata report for BODC series reference number 171886
1718981978-09-02 21:10 59° 26' 6" N  12° 29' 17" W  View metadata report for BODC series reference number 171898
1719051978-09-02 21:15 59° 26' 6" N  12° 29' 17" W  View metadata report for BODC series reference number 171905
1719171978-09-02 21:20 59° 26' 6" N  12° 29' 17" W  View metadata report for BODC series reference number 171917
1719291978-09-02 21:25 59° 26' 6" N  12° 29' 17" W  View metadata report for BODC series reference number 171929
1719301978-09-02 21:30 59° 26' 6" N  12° 29' 17" W  View metadata report for BODC series reference number 171930
1719421978-09-02 21:35 59° 26' 6" N  12° 29' 17" W  View metadata report for BODC series reference number 171942
1719541978-09-02 21:40 59° 26' 6" N  12° 29' 17" W  View metadata report for BODC series reference number 171954
1719661978-09-02 21:45 59° 26' 6" N  12° 29' 17" W  View metadata report for BODC series reference number 171966
1719781978-09-02 21:50 59° 26' 6" N  12° 29' 17" W  View metadata report for BODC series reference number 171978
1719911978-09-02 21:55 59° 26' 6" N  12° 29' 17" W  View metadata report for BODC series reference number 171991
1720051978-09-02 22:00 59° 26' 6" N  12° 29' 17" W  View metadata report for BODC series reference number 172005
1720171978-09-02 22:05 59° 26' 6" N  12° 29' 17" W  View metadata report for BODC series reference number 172017
1720291978-09-02 22:10 59° 26' 6" N  12° 29' 17" W  View metadata report for BODC series reference number 172029
1720301978-09-02 22:15 59° 26' 6" N  12° 29' 17" W  View metadata report for BODC series reference number 172030
1720421978-09-02 22:20 59° 26' 6" N  12° 29' 17" W  View metadata report for BODC series reference number 172042
1720541978-09-02 22:25 59° 26' 6" N  12° 29' 17" W  View metadata report for BODC series reference number 172054
1720661978-09-02 22:30 59° 26' 6" N  12° 29' 17" W  View metadata report for BODC series reference number 172066
1720781978-09-02 22:35 59° 26' 6" N  12° 29' 17" W  View metadata report for BODC series reference number 172078
1720911978-09-02 22:40 59° 26' 6" N  12° 29' 17" W  View metadata report for BODC series reference number 172091
1721091978-09-02 22:45 59° 26' 6" N  12° 29' 17" W  View metadata report for BODC series reference number 172109
1717451978-09-02 19:50 59° 26' 6" N  12° 30' 23" W  View metadata report for BODC series reference number 171745
1717571978-09-02 19:55 59° 26' 6" N  12° 30' 23" W  View metadata report for BODC series reference number 171757
1717691978-09-02 20:00 59° 26' 6" N  12° 30' 23" W  View metadata report for BODC series reference number 171769
1631061978-08-26 22:46 58° 57' 41" N  12° 24' 41" W  View metadata report for BODC series reference number 163106
1631181978-08-26 23:00 58° 57' 41" N  12° 24' 5" W  View metadata report for BODC series reference number 163118
1631311978-08-26 23:15 58° 57' 41" N  12° 24' 5" W  View metadata report for BODC series reference number 163131
1717701978-09-02 20:05 59° 26' 6" N  12° 30' 23" W  View metadata report for BODC series reference number 171770
1717821978-09-02 20:10 59° 26' 6" N  12° 30' 23" W  View metadata report for BODC series reference number 171782
1717941978-09-02 20:15 59° 26' 6" N  12° 30' 23" W  View metadata report for BODC series reference number 171794
1718011978-09-02 20:20 59° 26' 6" N  12° 30' 23" W  View metadata report for BODC series reference number 171801
1730701978-09-03 10:00 58° 58' 11" N  12° 32' 23" W  View metadata report for BODC series reference number 173070
1730821978-09-03 10:30 58° 58' 5" N  12° 31' 53" W  View metadata report for BODC series reference number 173082
1730941978-09-03 11:00 58° 58' 5" N  12° 32' 6" W  View metadata report for BODC series reference number 173094
1731011978-09-03 11:30 58° 58' 5" N  12° 32' 6" W  View metadata report for BODC series reference number 173101
1731131978-09-03 12:00 58° 57' 59" N  12° 32' 35" W  View metadata report for BODC series reference number 173113
1731251978-09-03 12:30 58° 57' 59" N  12° 32' 35" W  View metadata report for BODC series reference number 173125
1731371978-09-03 13:00 58° 57' 59" N  12° 32' 35" W  View metadata report for BODC series reference number 173137
1731491978-09-03 13:30 58° 57' 59" N  12° 32' 23" W  View metadata report for BODC series reference number 173149
1731501978-09-03 14:00 58° 57' 47" N  12° 32' 29" W  View metadata report for BODC series reference number 173150
1731621978-09-03 14:30 58° 57' 59" N  12° 32' 41" W  View metadata report for BODC series reference number 173162
1731741978-09-03 15:00 58° 57' 59" N  12° 32' 41" W  View metadata report for BODC series reference number 173174
1731861978-09-03 15:30 58° 57' 59" N  12° 32' 41" W  View metadata report for BODC series reference number 173186
1731981978-09-03 17:00 58° 57' 59" N  12° 32' 41" W  View metadata report for BODC series reference number 173198
1732051978-09-03 17:30 58° 57' 59" N  12° 32' 41" W  View metadata report for BODC series reference number 173205
1732171978-09-03 18:00 58° 58' 17" N  12° 33' 0" W  View metadata report for BODC series reference number 173217
1732291978-09-03 18:30 58° 58' 17" N  12° 33' 0" W  View metadata report for BODC series reference number 173229
1732301978-09-03 19:00 58° 58' 17" N  12° 33' 0" W  View metadata report for BODC series reference number 173230
1732421978-09-03 19:30 58° 58' 17" N  12° 33' 0" W  View metadata report for BODC series reference number 173242
1716281978-09-02 19:00 59° 26' 6" N  12° 30' 23" W  View metadata report for BODC series reference number 171628
1716411978-09-02 19:05 59° 26' 6" N  12° 30' 23" W  View metadata report for BODC series reference number 171641
1716531978-09-02 19:10 59° 26' 6" N  12° 30' 23" W  View metadata report for BODC series reference number 171653
1716651978-09-02 19:15 59° 26' 6" N  12° 30' 23" W  View metadata report for BODC series reference number 171665
1716771978-09-02 19:20 59° 26' 6" N  12° 30' 23" W  View metadata report for BODC series reference number 171677
1716891978-09-02 19:25 59° 26' 6" N  12° 30' 23" W  View metadata report for BODC series reference number 171689
1716901978-09-02 19:30 59° 26' 6" N  12° 30' 23" W  View metadata report for BODC series reference number 171690
1717081978-09-02 19:35 59° 26' 6" N  12° 30' 23" W  View metadata report for BODC series reference number 171708
1717211978-09-02 19:40 59° 26' 6" N  12° 30' 23" W  View metadata report for BODC series reference number 171721
1717331978-09-02 19:45 59° 26' 6" N  12° 30' 23" W  View metadata report for BODC series reference number 171733
1729821978-09-03 05:25 59° 26' 23" N  12° 30' 23" W  View metadata report for BODC series reference number 172982
1729941978-09-03 05:30 59° 26' 23" N  12° 30' 23" W  View metadata report for BODC series reference number 172994
1730081978-09-03 05:35 59° 26' 23" N  12° 30' 23" W  View metadata report for BODC series reference number 173008
1730211978-09-03 05:40 59° 26' 23" N  12° 30' 23" W  View metadata report for BODC series reference number 173021
1730331978-09-03 05:45 59° 26' 23" N  12° 30' 23" W  View metadata report for BODC series reference number 173033
1730451978-09-03 05:50 59° 26' 23" N  12° 30' 23" W  View metadata report for BODC series reference number 173045
1730571978-09-03 05:55 59° 26' 23" N  12° 30' 23" W  View metadata report for BODC series reference number 173057
1730691978-09-03 09:30 58° 58' 11" N  12° 32' 23" W  View metadata report for BODC series reference number 173069
1726811978-09-03 03:10 59° 26' 23" N  12° 30' 23" W  View metadata report for BODC series reference number 172681
1726931978-09-03 03:15 59° 26' 23" N  12° 30' 23" W  View metadata report for BODC series reference number 172693
1727001978-09-03 03:20 59° 26' 23" N  12° 30' 23" W  View metadata report for BODC series reference number 172700
1727121978-09-03 03:25 59° 26' 23" N  12° 30' 23" W  View metadata report for BODC series reference number 172712
1727241978-09-03 03:30 59° 26' 23" N  12° 30' 23" W  View metadata report for BODC series reference number 172724
1727361978-09-03 03:35 59° 26' 23" N  12° 30' 23" W  View metadata report for BODC series reference number 172736
1727481978-09-03 03:40 59° 26' 23" N  12° 30' 23" W  View metadata report for BODC series reference number 172748
1727611978-09-03 03:45 59° 26' 23" N  12° 30' 23" W  View metadata report for BODC series reference number 172761
1727731978-09-03 03:50 59° 26' 23" N  12° 30' 23" W  View metadata report for BODC series reference number 172773
1727851978-09-03 03:55 59° 26' 23" N  12° 30' 23" W  View metadata report for BODC series reference number 172785
1727971978-09-03 04:00 59° 26' 23" N  12° 30' 23" W  View metadata report for BODC series reference number 172797
1728041978-09-03 04:05 59° 26' 23" N  12° 30' 23" W  View metadata report for BODC series reference number 172804
1728161978-09-03 04:10 59° 26' 23" N  12° 30' 23" W  View metadata report for BODC series reference number 172816
1728281978-09-03 04:15 59° 26' 23" N  12° 30' 23" W  View metadata report for BODC series reference number 172828
1728411978-09-03 04:20 59° 26' 23" N  12° 30' 23" W  View metadata report for BODC series reference number 172841
1728531978-09-03 04:25 59° 26' 23" N  12° 30' 23" W  View metadata report for BODC series reference number 172853
1728651978-09-03 04:30 59° 26' 23" N  12° 30' 23" W  View metadata report for BODC series reference number 172865
1728771978-09-03 04:35 59° 26' 23" N  12° 30' 23" W  View metadata report for BODC series reference number 172877
1728891978-09-03 04:40 59° 26' 23" N  12° 30' 23" W  View metadata report for BODC series reference number 172889
1728901978-09-03 04:45 59° 26' 23" N  12° 30' 23" W  View metadata report for BODC series reference number 172890
1729081978-09-03 04:50 59° 26' 23" N  12° 30' 23" W  View metadata report for BODC series reference number 172908
1729211978-09-03 04:55 59° 26' 23" N  12° 30' 23" W  View metadata report for BODC series reference number 172921
1729331978-09-03 05:00 59° 26' 23" N  12° 30' 23" W  View metadata report for BODC series reference number 172933
1729451978-09-03 05:05 59° 26' 23" N  12° 30' 23" W  View metadata report for BODC series reference number 172945
1729571978-09-03 05:10 59° 26' 23" N  12° 30' 23" W  View metadata report for BODC series reference number 172957
1729691978-09-03 05:15 59° 26' 23" N  12° 30' 23" W  View metadata report for BODC series reference number 172969
1729701978-09-03 05:20 59° 26' 23" N  12° 30' 23" W  View metadata report for BODC series reference number 172970
1725881978-09-03 02:25 59° 26' 6" N  12° 29' 17" W  View metadata report for BODC series reference number 172588
1726071978-09-03 02:30 59° 26' 6" N  12° 29' 17" W  View metadata report for BODC series reference number 172607
1726191978-09-03 02:40 59° 26' 6" N  12° 29' 17" W  View metadata report for BODC series reference number 172619
1726201978-09-03 02:45 59° 26' 23" N  12° 30' 23" W  View metadata report for BODC series reference number 172620
1726321978-09-03 02:50 59° 26' 23" N  12° 30' 23" W  View metadata report for BODC series reference number 172632
1726441978-09-03 02:55 59° 26' 23" N  12° 30' 23" W  View metadata report for BODC series reference number 172644
1726561978-09-03 03:00 59° 26' 23" N  12° 30' 23" W  View metadata report for BODC series reference number 172656
1726681978-09-03 03:05 59° 26' 23" N  12° 30' 23" W  View metadata report for BODC series reference number 172668
1739361978-09-05 07:50 58° 57' 0" N  12° 32' 23" W  View metadata report for BODC series reference number 173936
1739481978-09-05 08:10 58° 57' 0" N  12° 31' 59" W  View metadata report for BODC series reference number 173948
1739611978-09-05 08:30 58° 57' 11" N  12° 31' 59" W  View metadata report for BODC series reference number 173961
1739731978-09-05 08:50 58° 57' 0" N  12° 32' 23" W  View metadata report for BODC series reference number 173973
1739851978-09-05 09:10 58° 57' 0" N  12° 32' 23" W  View metadata report for BODC series reference number 173985
1739971978-09-05 09:30 58° 57' 47" N  12° 27' 29" W  View metadata report for BODC series reference number 173997
1740001978-09-05 09:50 58° 57' 54" N  12° 26' 35" W  View metadata report for BODC series reference number 174000
1740121978-09-05 10:50 58° 55' 47" N  12° 36' 47" W  View metadata report for BODC series reference number 174012
1740241978-09-05 11:10 58° 55' 47" N  12° 36' 47" W  View metadata report for BODC series reference number 174024
1740361978-09-05 11:30 58° 56' 11" N  12° 34' 5" W  View metadata report for BODC series reference number 174036
1740481978-09-05 11:50 58° 56' 11" N  12° 34' 5" W  View metadata report for BODC series reference number 174048
1740611978-09-05 12:10 58° 56' 11" N  12° 34' 5" W  View metadata report for BODC series reference number 174061
1740731978-09-05 12:30 58° 56' 11" N  12° 34' 5" W  View metadata report for BODC series reference number 174073
1740851978-09-05 13:10 58° 56' 11" N  12° 34' 5" W  View metadata report for BODC series reference number 174085
1724471978-09-03 01:15 59° 26' 6" N  12° 29' 17" W  View metadata report for BODC series reference number 172447
1724591978-09-03 01:20 59° 26' 6" N  12° 29' 17" W  View metadata report for BODC series reference number 172459
1724601978-09-03 01:25 59° 26' 6" N  12° 29' 17" W  View metadata report for BODC series reference number 172460
1724721978-09-03 01:30 59° 26' 6" N  12° 29' 17" W  View metadata report for BODC series reference number 172472
1724841978-09-03 01:35 59° 26' 6" N  12° 29' 17" W  View metadata report for BODC series reference number 172484
1724961978-09-03 01:40 59° 26' 6" N  12° 29' 17" W  View metadata report for BODC series reference number 172496
1725031978-09-03 01:45 59° 26' 6" N  12° 29' 17" W  View metadata report for BODC series reference number 172503
1725151978-09-03 01:50 59° 26' 6" N  12° 29' 17" W  View metadata report for BODC series reference number 172515
1725271978-09-03 01:55 59° 26' 6" N  12° 29' 17" W  View metadata report for BODC series reference number 172527
1725391978-09-03 02:00 59° 26' 6" N  12° 29' 17" W  View metadata report for BODC series reference number 172539
1725401978-09-03 02:05 59° 26' 6" N  12° 29' 17" W  View metadata report for BODC series reference number 172540
1725521978-09-03 02:10 59° 26' 6" N  12° 29' 17" W  View metadata report for BODC series reference number 172552
1725641978-09-03 02:15 59° 26' 6" N  12° 29' 17" W  View metadata report for BODC series reference number 172564
1725761978-09-03 02:20 59° 26' 6" N  12° 29' 17" W  View metadata report for BODC series reference number 172576
1736471978-09-04 22:30 58° 56' 23" N  12° 31' 35" W  View metadata report for BODC series reference number 173647
1736591978-09-04 22:50 58° 56' 23" N  12° 31' 35" W  View metadata report for BODC series reference number 173659
1736601978-09-04 23:10 58° 56' 23" N  12° 31' 35" W  View metadata report for BODC series reference number 173660
1736721978-09-04 23:30 58° 56' 23" N  12° 31' 35" W  View metadata report for BODC series reference number 173672
1736841978-09-04 23:50 58° 56' 23" N  12° 30' 41" W  View metadata report for BODC series reference number 173684
1736961978-09-05 00:10 58° 56' 23" N  12° 30' 41" W  View metadata report for BODC series reference number 173696
1737031978-09-05 00:30 58° 56' 23" N  12° 30' 41" W  View metadata report for BODC series reference number 173703
1737151978-09-05 01:10 58° 56' 23" N  12° 30' 41" W  View metadata report for BODC series reference number 173715
1737271978-09-05 01:30 58° 56' 23" N  12° 31' 11" W  View metadata report for BODC series reference number 173727
1737391978-09-05 01:50 58° 56' 23" N  12° 31' 11" W  View metadata report for BODC series reference number 173739
1737401978-09-05 02:10 58° 56' 23" N  12° 31' 11" W  View metadata report for BODC series reference number 173740
1737521978-09-05 02:30 58° 56' 23" N  12° 31' 11" W  View metadata report for BODC series reference number 173752
1737641978-09-05 02:50 58° 56' 23" N  12° 31' 11" W  View metadata report for BODC series reference number 173764
1737761978-09-05 03:10 58° 56' 23" N  12° 31' 11" W  View metadata report for BODC series reference number 173776
1737881978-09-05 03:30 58° 56' 35" N  12° 31' 59" W  View metadata report for BODC series reference number 173788
1738071978-09-05 03:50 58° 56' 35" N  12° 31' 59" W  View metadata report for BODC series reference number 173807
1738191978-09-05 04:10 58° 56' 35" N  12° 31' 59" W  View metadata report for BODC series reference number 173819
1738201978-09-05 04:30 58° 56' 35" N  12° 31' 59" W  View metadata report for BODC series reference number 173820
1738321978-09-05 04:50 58° 56' 35" N  12° 31' 59" W  View metadata report for BODC series reference number 173832
1738441978-09-05 05:10 58° 56' 35" N  12° 31' 59" W  View metadata report for BODC series reference number 173844
1738561978-09-05 05:30 58° 56' 35" N  12° 31' 59" W  View metadata report for BODC series reference number 173856
1738681978-09-05 05:50 58° 56' 47" N  12° 32' 47" W  View metadata report for BODC series reference number 173868
1738811978-09-05 06:10 58° 56' 47" N  12° 32' 47" W  View metadata report for BODC series reference number 173881
1738931978-09-05 06:30 58° 56' 47" N  12° 32' 47" W  View metadata report for BODC series reference number 173893
1739001978-09-05 06:50 58° 56' 47" N  12° 32' 41" W  View metadata report for BODC series reference number 173900
1739121978-09-05 07:10 58° 56' 47" N  12° 32' 23" W  View metadata report for BODC series reference number 173912
1739241978-09-05 07:30 58° 57' 0" N  12° 32' 23" W  View metadata report for BODC series reference number 173924
1735311978-09-04 08:00 58° 58' 5" N  12° 32' 17" W  View metadata report for BODC series reference number 173531
1735431978-09-04 08:30 58° 58' 23" N  12° 30' 59" W  View metadata report for BODC series reference number 173543
1735551978-09-04 09:00 58° 58' 23" N  12° 30' 59" W  View metadata report for BODC series reference number 173555
1735671978-09-04 09:30 58° 57' 59" N  12° 31' 41" W  View metadata report for BODC series reference number 173567
1735791978-09-04 10:00 58° 57' 59" N  12° 32' 6" W  View metadata report for BODC series reference number 173579
1735801978-09-04 10:30 58° 57' 41" N  12° 32' 6" W  View metadata report for BODC series reference number 173580
1735921978-09-04 11:00 58° 57' 47" N  12° 31' 35" W  View metadata report for BODC series reference number 173592
1736111978-09-04 11:30 58° 57' 47" N  12° 31' 35" W  View metadata report for BODC series reference number 173611
1736231978-09-04 21:50 58° 55' 59" N  12° 33' 11" W  View metadata report for BODC series reference number 173623
1736351978-09-04 22:10 58° 55' 59" N  12° 32' 11" W  View metadata report for BODC series reference number 173635
1734511978-09-04 04:30 58° 57' 59" N  12° 32' 47" W  View metadata report for BODC series reference number 173451
1734631978-09-04 05:00 58° 57' 59" N  12° 32' 47" W  View metadata report for BODC series reference number 173463
1734751978-09-04 05:30 58° 57' 59" N  12° 32' 47" W  View metadata report for BODC series reference number 173475
1734871978-09-04 06:00 58° 57' 59" N  12° 32' 47" W  View metadata report for BODC series reference number 173487
1734991978-09-04 06:30 58° 58' 23" N  12° 32' 23" W  View metadata report for BODC series reference number 173499
1735061978-09-04 07:00 58° 58' 35" N  12° 32' 23" W  View metadata report for BODC series reference number 173506
1735181978-09-04 07:30 58° 58' 35" N  12° 32' 23" W  View metadata report for BODC series reference number 173518
1747801978-09-07 04:13 59° 2' 5" N  12° 33' 47" W  View metadata report for BODC series reference number 174780
1747921978-09-07 04:40 59° 2' 11" N  12° 35' 42" W  View metadata report for BODC series reference number 174792
1748111978-09-07 05:07 59° 0' 35" N  12° 35' 17" W  View metadata report for BODC series reference number 174811
1748231978-09-07 05:35 58° 59' 17" N  12° 36' 35" W  View metadata report for BODC series reference number 174823
1748351978-09-07 06:07 58° 57' 36" N  12° 36' 35" W  View metadata report for BODC series reference number 174835
1748471978-09-07 06:32 58° 57' 29" N  12° 33' 53" W  View metadata report for BODC series reference number 174847
1748591978-09-07 07:00 58° 57' 54" N  12° 30' 47" W  View metadata report for BODC series reference number 174859
1748601978-09-07 07:18 58° 57' 54" N  12° 27' 47" W  View metadata report for BODC series reference number 174860
1748721978-09-07 07:40 58° 57' 36" N  12° 26' 35" W  View metadata report for BODC series reference number 174872
1748841978-09-07 15:00 59° 6' 5" N  12° 34' 53" W  View metadata report for BODC series reference number 174884
1748961978-09-07 15:30 59° 6' 5" N  12° 34' 53" W  View metadata report for BODC series reference number 174896
1749031978-09-07 16:00 59° 9' 5" N  12° 30' 29" W  View metadata report for BODC series reference number 174903
1732541978-09-03 20:00 58° 58' 11" N  12° 32' 29" W  View metadata report for BODC series reference number 173254
1732661978-09-03 20:30 58° 58' 17" N  12° 33' 0" W  View metadata report for BODC series reference number 173266
1732781978-09-03 21:00 58° 58' 35" N  12° 32' 11" W  View metadata report for BODC series reference number 173278
1732911978-09-03 21:30 58° 58' 5" N  12° 31' 53" W  View metadata report for BODC series reference number 173291
1733091978-09-03 22:00 58° 58' 5" N  12° 31' 53" W  View metadata report for BODC series reference number 173309
1733101978-09-03 22:30 58° 58' 5" N  12° 31' 53" W  View metadata report for BODC series reference number 173310
1733221978-09-03 23:30 58° 57' 54" N  12° 31' 35" W  View metadata report for BODC series reference number 173322
1733341978-09-04 00:00 58° 57' 54" N  12° 31' 35" W  View metadata report for BODC series reference number 173334
1733461978-09-04 00:30 58° 57' 54" N  12° 31' 35" W  View metadata report for BODC series reference number 173346
1733581978-09-04 01:00 58° 58' 5" N  12° 31' 41" W  View metadata report for BODC series reference number 173358
1733831978-09-04 01:30 58° 58' 5" N  12° 31' 41" W  View metadata report for BODC series reference number 173383
1733951978-09-04 02:00 58° 58' 5" N  12° 31' 41" W  View metadata report for BODC series reference number 173395
1734021978-09-04 02:30 58° 58' 5" N  12° 31' 41" W  View metadata report for BODC series reference number 173402
1734141978-09-04 03:00 58° 58' 5" N  12° 31' 41" W  View metadata report for BODC series reference number 173414
1734261978-09-04 03:30 58° 58' 5" N  12° 31' 59" W  View metadata report for BODC series reference number 173426
1734381978-09-04 04:00 58° 58' 5" N  12° 31' 59" W  View metadata report for BODC series reference number 173438
1747061978-09-07 00:57 58° 57' 59" N  12° 22' 59" W  View metadata report for BODC series reference number 174706
1747181978-09-07 01:26 58° 58' 11" N  12° 16' 41" W  View metadata report for BODC series reference number 174718
1747311978-09-07 01:52 58° 59' 53" N  12° 15' 35" W  View metadata report for BODC series reference number 174731
1747431978-09-07 02:22 59° 1' 29" N  12° 14' 35" W  View metadata report for BODC series reference number 174743
1747551978-09-07 02:50 59° 3' 17" N  12° 13' 48" W  View metadata report for BODC series reference number 174755
1747671978-09-07 03:20 59° 2' 29" N  12° 28' 48" W  View metadata report for BODC series reference number 174767
1747791978-09-07 03:45 59° 2' 23" N  12° 31' 11" W  View metadata report for BODC series reference number 174779
1743981978-09-06 03:00 58° 55' 59" N  12° 33' 0" W  View metadata report for BODC series reference number 174398
1744051978-09-06 03:20 58° 55' 59" N  12° 33' 0" W  View metadata report for BODC series reference number 174405
1744171978-09-06 03:40 58° 55' 59" N  12° 33' 0" W  View metadata report for BODC series reference number 174417
1744291978-09-06 04:00 58° 55' 59" N  12° 33' 0" W  View metadata report for BODC series reference number 174429
1744301978-09-06 04:20 58° 55' 59" N  12° 33' 0" W  View metadata report for BODC series reference number 174430
1744421978-09-06 04:40 58° 55' 59" N  12° 34' 23" W  View metadata report for BODC series reference number 174442
1744541978-09-06 05:00 58° 56' 17" N  12° 34' 41" W  View metadata report for BODC series reference number 174454
1744661978-09-06 05:20 58° 56' 17" N  12° 34' 41" W  View metadata report for BODC series reference number 174466
1744781978-09-06 05:40 58° 56' 17" N  12° 34' 41" W  View metadata report for BODC series reference number 174478
1744911978-09-06 06:00 58° 57' 0" N  12° 33' 59" W  View metadata report for BODC series reference number 174491
1745091978-09-06 06:20 58° 57' 0" N  12° 34' 12" W  View metadata report for BODC series reference number 174509
1745101978-09-06 06:40 58° 57' 0" N  12° 34' 12" W  View metadata report for BODC series reference number 174510
1745221978-09-06 07:00 58° 57' 5" N  12° 34' 17" W  View metadata report for BODC series reference number 174522
1745341978-09-06 07:20 58° 57' 5" N  12° 34' 17" W  View metadata report for BODC series reference number 174534
1745461978-09-06 07:40 58° 57' 5" N  12° 34' 17" W  View metadata report for BODC series reference number 174546
1745581978-09-06 19:15 58° 57' 41" N  12° 22' 30" W  View metadata report for BODC series reference number 174558
1745711978-09-06 19:40 58° 59' 29" N  12° 20' 47" W  View metadata report for BODC series reference number 174571
1745831978-09-06 20:05 59° 0' 41" N  12° 19' 35" W  View metadata report for BODC series reference number 174583
1745951978-09-06 20:30 59° 2' 47" N  12° 22' 59" W  View metadata report for BODC series reference number 174595
1746021978-09-06 22:55 59° 2' 47" N  12° 27' 11" W  View metadata report for BODC series reference number 174602
1746141978-09-06 21:22 59° 3' 5" N  12° 31' 5" W  View metadata report for BODC series reference number 174614
1746261978-09-06 21:48 59° 3' 11" N  12° 33' 47" W  View metadata report for BODC series reference number 174626
1746381978-09-06 22:17 59° 3' 11" N  12° 38' 11" W  View metadata report for BODC series reference number 174638
1746511978-09-06 22:41 59° 1' 29" N  12° 35' 23" W  View metadata report for BODC series reference number 174651
1746631978-09-06 23:04 58° 59' 41" N  12° 33' 41" W  View metadata report for BODC series reference number 174663
1746751978-09-06 23:28 58° 57' 59" N  12° 31' 35" W  View metadata report for BODC series reference number 174675
1746871978-09-06 23:54 58° 58' 11" N  12° 26' 53" W  View metadata report for BODC series reference number 174687
1746991978-09-07 00:23 58° 57' 54" N  12° 21' 47" W  View metadata report for BODC series reference number 174699
1743251978-09-06 00:40 58° 56' 29" N  12° 33' 53" W  View metadata report for BODC series reference number 174325
1743371978-09-06 01:00 58° 56' 29" N  12° 33' 53" W  View metadata report for BODC series reference number 174337
1743491978-09-06 01:20 58° 56' 29" N  12° 33' 53" W  View metadata report for BODC series reference number 174349
1743501978-09-06 01:40 58° 56' 35" N  12° 33' 41" W  View metadata report for BODC series reference number 174350
1743621978-09-06 02:00 58° 55' 59" N  12° 32' 53" W  View metadata report for BODC series reference number 174362
1743741978-09-06 02:20 58° 55' 59" N  12° 32' 53" W  View metadata report for BODC series reference number 174374
1743861978-09-06 02:40 58° 55' 59" N  12° 33' 0" W  View metadata report for BODC series reference number 174386
1740971978-09-05 13:30 58° 56' 11" N  12° 34' 5" W  View metadata report for BODC series reference number 174097
1741041978-09-05 13:50 58° 56' 11" N  12° 34' 5" W  View metadata report for BODC series reference number 174104
1741161978-09-05 14:10 58° 56' 11" N  12° 34' 5" W  View metadata report for BODC series reference number 174116
1741281978-09-05 14:30 58° 56' 11" N  12° 34' 5" W  View metadata report for BODC series reference number 174128
1741411978-09-05 14:50 58° 56' 11" N  12° 34' 5" W  View metadata report for BODC series reference number 174141
1741531978-09-05 15:10 58° 56' 11" N  12° 34' 5" W  View metadata report for BODC series reference number 174153
1741651978-09-05 15:30 58° 56' 11" N  12° 34' 5" W  View metadata report for BODC series reference number 174165